Time,TemperatureF,DewpointF,PressureIn,WindDirection,WindDirectionDegrees,WindSpeedMPH,WindSpeedGustMPH,Humidity,HourlyPrecipIn,Conditions,Clouds,dailyrainin,SoftwareType,DateUTC
2013-02-26 00:00:00,19.2,8.4,29.88,NNW,338,6.0,6.0,62,0.00,,,0.00,VWS V14.01,2013-02-26 06:00:00,
2013-02-26 00:02:00,18.1,8.7,29.85,NNE,22,0.0,1.3,66,0.00,,,0.00,VWS V14.01,2013-02-26 06:02:00,
2013-02-26 00:04:00,18.1,9.0,29.85,NNE,22,0.0,1.3,67,0.00,,,0.00,VWS V14.01,2013-02-26 06:04:00,
2013-02-26 00:05:00,19.0,8.5,29.88,NNW,338,0.0,1.3,63,0.00,,,0.00,VWS V14.01,2013-02-26 06:05:00,
2013-02-26 00:06:00,18.1,9.0,29.85,NNW,338,0.0,0.0,67,0.00,,,0.00,VWS V14.01,2013-02-26 06:06:00,
2013-02-26 00:08:00,18.1,9.0,29.85,NNE,22,8.7,8.7,67,0.00,,,0.00,VWS V14.01,2013-02-26 06:08:00,
2013-02-26 00:10:00,19.0,8.5,29.88,North,0,6.0,6.0,63,0.00,,,0.00,VWS V14.01,2013-02-26 06:10:00,
2013-02-26 00:12:00,18.0,8.9,29.88,NNW,338,4.0,4.0,67,0.00,,,0.00,VWS V14.01,2013-02-26 06:12:00,
2013-02-26 00:14:00,18.0,8.9,29.88,NNE,22,4.7,4.7,67,0.00,,,0.00,VWS V14.01,2013-02-26 06:14:00,
2013-02-26 00:15:00,19.0,9.2,29.88,NNW,338,4.0,4.0,65,0.00,,,0.00,VWS V14.01,2013-02-26 06:15:00,
2013-02-26 00:16:00,18.0,8.9,29.88,NE,45,6.7,6.7,67,0.00,,,0.00,VWS V14.01,2013-02-26 06:16:00,
2013-02-26 00:18:00,18.0,8.9,29.88,NNE,22,4.0,4.0,67,0.00,,,0.00,VWS V14.01,2013-02-26 06:18:00,
2013-02-26 00:20:00,18.9,9.1,29.88,NW,315,3.4,3.4,65,0.00,,,0.00,VWS V14.01,2013-02-26 06:20:00,
2013-02-26 00:22:00,18.0,8.9,29.88,North,0,0.0,2.9,67,0.00,,,0.00,VWS V14.01,2013-02-26 06:22:00,
2013-02-26 00:24:00,18.0,9.2,29.88,North,0,7.4,7.4,68,0.00,,,0.00,VWS V14.01,2013-02-26 06:24:00,
2013-02-26 00:25:00,18.7,9.2,29.88,NNW,338,3.4,3.4,66,0.00,,,0.00,VWS V14.01,2013-02-26 06:25:00,
2013-02-26 00:26:00,18.0,9.2,29.88,NW,315,3.4,3.4,68,0.00,,,0.00,VWS V14.01,2013-02-26 06:26:00,
2013-02-26 00:28:00,18.0,9.2,29.88,NNE,22,4.0,4.0,68,0.00,,,0.00,VWS V14.01,2013-02-26 06:28:00,
2013-02-26 00:30:00,18.7,9.2,29.88,NNE,22,2.7,2.7,66,0.00,,,0.00,VWS V14.01,2013-02-26 06:30:00,
2013-02-26 00:32:00,18.0,9.2,29.88,North,0,4.0,4.0,68,0.00,,,0.00,VWS V14.01,2013-02-26 06:32:00,
2013-02-26 00:34:00,17.8,9.0,29.88,NE,45,4.7,4.7,68,0.00,,,0.00,VWS V14.01,2013-02-26 06:34:00,
2013-02-26 00:35:00,18.5,9.1,29.88,North,0,6.7,6.7,66,0.00,,,0.00,VWS V14.01,2013-02-26 06:35:00,
2013-02-26 00:36:00,17.8,9.0,29.88,NNW,338,2.7,2.7,68,0.00,,,0.00,VWS V14.01,2013-02-26 06:36:00,
2013-02-26 00:38:00,17.8,9.0,29.88,NNW,338,6.0,6.0,68,0.00,,,0.00,VWS V14.01,2013-02-26 06:38:00,
2013-02-26 00:39:00,18.3,8.9,29.88,NW,315,8.1,8.1,66,0.00,,,0.00,VWS V14.01,2013-02-26 06:39:00,
2013-02-26 00:40:00,17.8,8.7,29.88,NNE,22,3.4,3.4,67,0.00,,,0.00,VWS V14.01,2013-02-26 06:40:00,
2013-02-26 00:42:00,17.6,8.9,29.88,NE,45,8.7,8.7,68,0.00,,,0.00,VWS V14.01,2013-02-26 06:42:00,
2013-02-26 00:44:00,18.1,8.7,29.88,ENE,68,4.0,4.0,66,0.00,,,0.00,VWS V14.01,2013-02-26 06:44:00,
2013-02-26 00:46:00,17.6,8.5,29.88,NNE,22,0.0,0.0,67,0.00,,,0.00,VWS V14.01,2013-02-26 06:46:00,
2013-02-26 00:48:00,17.4,8.4,29.88,North,0,0.0,2.0,67,0.00,,,0.00,VWS V14.01,2013-02-26 06:48:00,
2013-02-26 00:49:00,18.1,8.7,29.85,NE,45,4.0,4.0,66,0.00,,,0.00,VWS V14.01,2013-02-26 06:49:00,
2013-02-26 00:50:00,17.4,8.4,29.88,NNW,338,0.0,1.6,67,0.00,,,0.00,VWS V14.01,2013-02-26 06:50:00,
2013-02-26 00:52:00,17.4,8.4,29.88,North,0,2.7,2.7,67,0.00,,,0.00,VWS V14.01,2013-02-26 06:52:00,
2013-02-26 00:54:00,18.1,8.7,29.85,North,0,4.7,4.7,66,0.00,,,0.00,VWS V14.01,2013-02-26 06:54:00,
2013-02-26 00:56:00,17.2,8.2,29.88,NNW,338,6.0,6.0,67,0.00,,,0.00,VWS V14.01,2013-02-26 06:56:00,
2013-02-26 00:58:00,17.1,8.0,29.88,NNW,338,4.0,4.0,67,0.00,,,0.00,VWS V14.01,2013-02-26 06:58:00,
2013-02-26 00:59:00,18.1,9.0,29.85,NNW,338,4.0,4.0,67,0.00,,,0.00,VWS V14.01,2013-02-26 06:59:00,
2013-02-26 01:00:00,17.1,8.0,29.88,NNE,22,4.0,4.0,67,0.00,,,0.00,VWS V14.01,2013-02-26 07:00:00,
2013-02-26 01:02:00,17.1,8.0,29.88,NNE,22,3.4,3.4,67,0.00,,,0.00,VWS V14.01,2013-02-26 07:02:00,
2013-02-26 01:04:00,18.0,8.9,29.88,NNW,338,4.7,4.7,67,0.00,,,0.00,VWS V14.01,2013-02-26 07:04:00,
2013-02-26 01:06:00,17.1,8.0,29.88,NNW,338,4.0,4.0,67,0.00,,,0.00,VWS V14.01,2013-02-26 07:06:00,
2013-02-26 01:08:00,16.9,7.8,29.88,North,0,3.4,3.4,67,0.00,,,0.00,VWS V14.01,2013-02-26 07:08:00,
2013-02-26 01:09:00,18.0,8.9,29.88,NE,45,3.4,3.4,67,0.00,,,0.00,VWS V14.01,2013-02-26 07:09:00,
2013-02-26 01:10:00,16.9,7.8,29.88,NNE,22,0.0,0.9,67,0.00,,,0.00,VWS V14.01,2013-02-26 07:10:00,
2013-02-26 01:12:00,16.9,7.8,29.88,NNW,338,0.0,1.3,67,0.00,,,0.00,VWS V14.01,2013-02-26 07:12:00,
2013-02-26 01:14:00,18.0,8.9,29.88,North,0,0.0,1.1,67,0.00,,,0.00,VWS V14.01,2013-02-26 07:14:00,
2013-02-26 01:16:00,16.9,7.8,29.88,NNE,22,0.0,1.3,67,0.00,,,0.00,VWS V14.01,2013-02-26 07:16:00,
2013-02-26 01:18:00,16.9,7.8,29.88,NW,315,6.0,6.0,67,0.00,,,0.00,VWS V14.01,2013-02-26 07:18:00,
2013-02-26 01:19:00,18.0,9.2,29.88,NNE,22,4.7,4.7,68,0.00,,,0.00,VWS V14.01,2013-02-26 07:19:00,
2013-02-26 01:20:00,16.9,7.8,29.88,NNE,22,3.4,3.4,67,0.00,,,0.00,VWS V14.01,2013-02-26 07:20:00,
2013-02-26 01:22:00,16.9,7.8,29.88,NNE,22,4.0,4.0,67,0.00,,,0.00,VWS V14.01,2013-02-26 07:22:00,
2013-02-26 01:24:00,18.0,9.2,29.88,North,0,4.7,4.7,68,0.00,,,0.00,VWS V14.01,2013-02-26 07:24:00,
2013-02-26 01:26:00,16.7,7.7,29.88,North,0,4.0,4.0,67,0.00,,,0.00,VWS V14.01,2013-02-26 07:26:00,
2013-02-26 01:28:00,16.7,7.7,29.88,NNE,22,2.7,2.9,67,0.00,,,0.00,VWS V14.01,2013-02-26 07:28:00,
2013-02-26 01:29:00,17.8,9.0,29.88,NNW,338,4.7,4.7,68,0.00,,,0.00,VWS V14.01,2013-02-26 07:29:00,
2013-02-26 01:30:00,16.7,7.7,29.88,NW,315,3.4,3.4,67,0.00,,,0.00,VWS V14.01,2013-02-26 07:30:00,
2013-02-26 01:32:00,16.7,7.7,29.88,NNE,22,4.7,4.7,67,0.00,,,0.00,VWS V14.01,2013-02-26 07:32:00,
2013-02-26 01:34:00,17.6,8.9,29.88,NE,45,6.7,6.7,68,0.00,,,0.00,VWS V14.01,2013-02-26 07:34:00,
2013-02-26 01:36:00,16.5,7.8,29.88,NNW,338,3.4,4.0,68,0.00,,,0.00,VWS V14.01,2013-02-26 07:36:00,
2013-02-26 01:38:00,16.5,7.8,29.88,NNW,338,7.4,7.4,68,0.00,,,0.00,VWS V14.01,2013-02-26 07:38:00,
2013-02-26 01:39:00,17.4,8.4,29.88,NNW,338,2.7,2.7,67,0.00,,,0.00,VWS V14.01,2013-02-26 07:39:00,
2013-02-26 01:40:00,16.5,7.8,29.88,NNW,338,4.0,4.0,68,0.00,,,0.00,VWS V14.01,2013-02-26 07:40:00,
2013-02-26 01:42:00,16.3,7.6,29.88,NNE,22,4.7,4.7,68,0.00,,,0.00,VWS V14.01,2013-02-26 07:42:00,
2013-02-26 01:44:00,17.4,8.4,29.88,North,0,2.7,2.7,67,0.00,,,0.00,VWS V14.01,2013-02-26 07:44:00,
2013-02-26 01:46:00,16.3,7.6,29.88,North,0,4.0,4.0,68,0.00,,,0.00,VWS V14.01,2013-02-26 07:46:00,
2013-02-26 01:48:00,16.2,7.5,29.88,North,0,4.0,4.3,68,0.00,,,0.00,VWS V14.01,2013-02-26 07:48:00,
2013-02-26 01:49:00,17.2,8.2,29.88,NNW,338,4.7,4.7,67,0.00,,,0.00,VWS V14.01,2013-02-26 07:49:00,
2013-02-26 01:50:00,16.2,7.8,29.88,NNW,338,7.4,7.4,69,0.00,,,0.00,VWS V14.01,2013-02-26 07:50:00,
2013-02-26 01:52:00,16.2,7.8,29.88,NE,45,6.0,6.0,69,0.00,,,0.00,VWS V14.01,2013-02-26 07:52:00,
2013-02-26 01:54:00,17.1,8.0,29.88,NNE,22,2.7,2.7,67,0.00,,,0.00,VWS V14.01,2013-02-26 07:54:00,
2013-02-26 01:56:00,16.2,7.8,29.85,NNW,338,4.0,4.0,69,0.00,,,0.00,VWS V14.01,2013-02-26 07:56:00,
2013-02-26 01:58:00,16.2,7.8,29.85,NNE,22,3.4,3.4,69,0.00,,,0.00,VWS V14.01,2013-02-26 07:58:00,
2013-02-26 01:59:00,16.9,7.8,29.88,NNE,22,0.0,2.0,67,0.00,,,0.00,VWS V14.01,2013-02-26 07:59:00,
2013-02-26 02:00:00,16.2,7.8,29.85,North,0,3.4,4.0,69,0.00,,,0.00,VWS V14.01,2013-02-26 08:00:00,
2013-02-26 02:02:00,16.2,7.8,29.85,North,0,2.7,2.7,69,0.00,,,0.00,VWS V14.01,2013-02-26 08:02:00,
2013-02-26 02:04:00,16.9,7.8,29.88,NNW,338,0.0,1.1,67,0.00,,,0.00,VWS V14.01,2013-02-26 08:04:00,
2013-02-26 02:06:00,16.2,7.8,29.85,NNW,338,4.0,4.0,69,0.00,,,0.00,VWS V14.01,2013-02-26 08:06:00,
2013-02-26 02:08:00,16.2,7.8,29.85,North,0,8.7,8.7,69,0.00,,,0.00,VWS V14.01,2013-02-26 08:08:00,
2013-02-26 02:09:00,16.9,7.8,29.88,NNE,22,0.0,0.0,67,0.00,,,0.00,VWS V14.01,2013-02-26 08:09:00,
2013-02-26 02:10:00,16.2,7.8,29.85,WNW,292,7.4,7.4,69,0.00,,,0.00,VWS V14.01,2013-02-26 08:10:00,
2013-02-26 02:12:00,16.2,8.1,29.88,NNW,338,4.0,4.0,70,0.00,,,0.00,VWS V14.01,2013-02-26 08:12:00,
2013-02-26 02:14:00,16.9,7.8,29.88,NNE,22,4.0,4.0,67,0.00,,,0.00,VWS V14.01,2013-02-26 08:14:00,
2013-02-26 02:16:00,16.2,8.1,29.88,NNE,22,7.4,7.4,70,0.00,,,0.00,VWS V14.01,2013-02-26 08:16:00,
2013-02-26 02:18:00,16.2,8.1,29.88,NE,45,6.7,6.7,70,0.00,,,0.00,VWS V14.01,2013-02-26 08:18:00,
2013-02-26 02:19:00,16.7,7.7,29.88,NNW,338,8.1,8.1,67,0.00,,,0.00,VWS V14.01,2013-02-26 08:19:00,
2013-02-26 02:20:00,16.0,7.9,29.88,NW,315,7.4,7.4,70,0.00,,,0.00,VWS V14.01,2013-02-26 08:20:00,
2013-02-26 02:22:00,16.0,7.9,29.88,NW,315,4.0,4.0,70,0.00,,,0.00,VWS V14.01,2013-02-26 08:22:00,
2013-02-26 02:24:00,16.7,7.7,29.88,NNE,22,4.7,4.7,67,0.00,,,0.00,VWS V14.01,2013-02-26 08:24:00,
2013-02-26 02:26:00,16.0,7.9,29.85,NE,45,8.7,8.7,70,0.00,,,0.00,VWS V14.01,2013-02-26 08:26:00,
2013-02-26 02:28:00,15.8,8.1,29.85,NE,45,7.4,7.4,71,0.00,,,0.00,VWS V14.01,2013-02-26 08:28:00,
2013-02-26 02:29:00,16.5,7.8,29.88,North,0,4.0,4.0,68,0.00,,,0.00,VWS V14.01,2013-02-26 08:29:00,
2013-02-26 02:30:00,15.8,7.8,29.85,NNW,338,0.0,1.6,70,0.00,,,0.00,VWS V14.01,2013-02-26 08:30:00,
2013-02-26 02:32:00,15.8,7.8,29.85,NNW,338,6.7,6.7,70,0.00,,,0.00,VWS V14.01,2013-02-26 08:32:00,
2013-02-26 02:34:00,16.3,7.6,29.88,NNE,22,3.4,3.4,68,0.00,,,0.00,VWS V14.01,2013-02-26 08:34:00,
2013-02-26 02:36:00,15.6,7.6,29.85,NNW,338,11.4,11.4,70,0.00,,,0.00,VWS V14.01,2013-02-26 08:36:00,
2013-02-26 02:38:00,15.4,7.4,29.85,NNE,22,4.0,4.0,70,0.00,,,0.00,VWS V14.01,2013-02-26 08:38:00,
2013-02-26 02:39:00,16.3,7.6,29.88,NNW,338,6.0,6.0,68,0.00,,,0.00,VWS V14.01,2013-02-26 08:39:00,
2013-02-26 02:40:00,15.4,7.4,29.85,North,0,4.0,4.0,70,0.00,,,0.00,VWS V14.01,2013-02-26 08:40:00,
2013-02-26 02:42:00,15.4,7.4,29.85,NNW,338,4.0,4.0,70,0.00,,,0.00,VWS V14.01,2013-02-26 08:42:00,
2013-02-26 02:44:00,16.2,7.8,29.88,North,0,7.4,7.4,69,0.00,,,0.00,VWS V14.01,2013-02-26 08:44:00,
2013-02-26 02:46:00,15.3,7.2,29.85,NNW,338,4.7,4.7,70,0.00,,,0.00,VWS V14.01,2013-02-26 08:46:00,
2013-02-26 02:48:00,15.3,7.2,29.85,NW,315,4.7,4.7,70,0.00,,,0.00,VWS V14.01,2013-02-26 08:48:00,
2013-02-26 02:49:00,16.2,7.8,29.85,NE,45,0.0,1.3,69,0.00,,,0.00,VWS V14.01,2013-02-26 08:49:00,
2013-02-26 02:50:00,15.3,7.2,29.85,NE,45,6.0,6.0,70,0.00,,,0.00,VWS V14.01,2013-02-26 08:50:00,
2013-02-26 02:52:00,15.3,7.2,29.85,NNE,22,0.0,2.0,70,0.00,,,0.00,VWS V14.01,2013-02-26 08:52:00,
2013-02-26 02:54:00,16.2,7.8,29.85,ENE,68,0.0,2.2,69,0.00,,,0.00,VWS V14.01,2013-02-26 08:54:00,
2013-02-26 02:56:00,15.1,7.1,29.85,NNW,338,7.4,7.4,70,0.00,,,0.00,VWS V14.01,2013-02-26 08:56:00,
2013-02-26 02:58:00,15.3,7.2,29.85,NW,315,4.7,4.7,70,0.00,,,0.00,VWS V14.01,2013-02-26 08:58:00,
2013-02-26 02:59:00,16.2,7.8,29.85,NW,315,6.0,6.0,69,0.00,,,0.00,VWS V14.01,2013-02-26 08:59:00,
2013-02-26 03:00:00,15.3,7.2,29.85,ENE,68,6.0,6.0,70,0.00,,,0.00,VWS V14.01,2013-02-26 09:00:00,
2013-02-26 03:02:00,15.3,7.2,29.85,NE,45,0.0,0.9,70,0.00,,,0.00,VWS V14.01,2013-02-26 09:02:00,
2013-02-26 03:04:00,16.2,8.1,29.88,NNW,338,4.0,4.0,70,0.00,,,0.00,VWS V14.01,2013-02-26 09:04:00,
2013-02-26 03:06:00,15.3,6.9,29.85,NE,45,0.0,0.0,69,0.00,,,0.00,VWS V14.01,2013-02-26 09:06:00,
2013-02-26 03:08:00,15.3,6.9,29.85,NNE,22,4.7,4.7,69,0.00,,,0.00,VWS V14.01,2013-02-26 09:08:00,
2013-02-26 03:09:00,16.2,8.1,29.88,ENE,68,4.7,4.7,70,0.00,,,0.00,VWS V14.01,2013-02-26 09:09:00,
2013-02-26 03:10:00,15.3,6.9,29.85,NNW,338,0.0,1.6,69,0.00,,,0.00,VWS V14.01,2013-02-26 09:10:00,
2013-02-26 03:12:00,15.3,6.9,29.88,NNE,22,4.0,4.0,69,0.00,,,0.00,VWS V14.01,2013-02-26 09:12:00,
2013-02-26 03:14:00,16.0,7.9,29.88,NNW,338,3.4,3.4,70,0.00,,,0.00,VWS V14.01,2013-02-26 09:14:00,
2013-02-26 03:16:00,15.3,6.9,29.88,NNE,22,0.0,1.3,69,0.00,,,0.00,VWS V14.01,2013-02-26 09:16:00,
2013-02-26 03:18:00,15.3,6.9,29.88,NNW,338,4.7,4.7,69,0.00,,,0.00,VWS V14.01,2013-02-26 09:18:00,
2013-02-26 03:19:00,16.0,7.9,29.85,NW,315,8.1,8.1,70,0.00,,,0.00,VWS V14.01,2013-02-26 09:19:00,
2013-02-26 03:20:00,15.3,6.6,29.88,NNW,338,0.0,2.0,68,0.00,,,0.00,VWS V14.01,2013-02-26 09:20:00,
2013-02-26 03:22:00,15.3,6.6,29.88,NNE,22,0.0,0.0,68,0.00,,,0.00,VWS V14.01,2013-02-26 09:22:00,
2013-02-26 03:24:00,15.8,7.8,29.85,NNW,338,6.7,6.7,70,0.00,,,0.00,VWS V14.01,2013-02-26 09:24:00,
2013-02-26 03:26:00,15.3,6.6,29.88,North,0,0.0,0.0,68,0.00,,,0.00,VWS V14.01,2013-02-26 09:26:00,
2013-02-26 03:28:00,15.3,6.6,29.88,NNW,338,3.4,3.4,68,0.00,,,0.00,VWS V14.01,2013-02-26 09:28:00,
2013-02-26 03:29:00,15.4,7.4,29.85,NNE,22,3.4,3.8,70,0.00,,,0.00,VWS V14.01,2013-02-26 09:29:00,
2013-02-26 03:30:00,15.3,6.6,29.88,NW,315,3.4,3.4,68,0.00,,,0.00,VWS V14.01,2013-02-26 09:30:00,
2013-02-26 03:32:00,15.3,6.6,29.88,NNE,22,6.7,6.7,68,0.00,,,0.00,VWS V14.01,2013-02-26 09:32:00,
2013-02-26 03:34:00,15.4,7.4,29.85,NNW,338,4.0,4.0,70,0.00,,,0.00,VWS V14.01,2013-02-26 09:34:00,
2013-02-26 03:36:00,15.3,6.6,29.88,ENE,68,3.4,3.4,68,0.00,,,0.00,VWS V14.01,2013-02-26 09:36:00,
2013-02-26 03:38:00,15.3,6.6,29.88,NNW,338,0.0,0.0,68,0.00,,,0.00,VWS V14.01,2013-02-26 09:38:00,
2013-02-26 03:39:00,15.3,7.2,29.85,NNW,338,7.4,7.4,70,0.00,,,0.00,VWS V14.01,2013-02-26 09:39:00,
2013-02-26 03:40:00,15.3,6.6,29.88,NNW,338,6.7,6.7,68,0.00,,,0.00,VWS V14.01,2013-02-26 09:40:00,
2013-02-26 03:42:00,15.4,6.8,29.88,NNW,338,6.0,6.0,68,0.00,,,0.00,VWS V14.01,2013-02-26 09:42:00,
2013-02-26 03:44:00,15.3,7.2,29.85,NNE,22,3.4,3.4,70,0.00,,,0.00,VWS V14.01,2013-02-26 09:44:00,
2013-02-26 03:46:00,15.4,7.1,29.88,NNE,22,6.7,6.7,69,0.00,,,0.00,VWS V14.01,2013-02-26 09:46:00,
2013-02-26 03:48:00,15.4,7.1,29.88,NNE,22,2.7,2.7,69,0.00,,,0.00,VWS V14.01,2013-02-26 09:48:00,
2013-02-26 03:49:00,15.3,7.2,29.85,NNW,338,7.4,7.4,70,0.00,,,0.00,VWS V14.01,2013-02-26 09:49:00,
2013-02-26 03:50:00,15.4,7.1,29.88,North,0,6.7,6.7,69,0.00,,,0.00,VWS V14.01,2013-02-26 09:50:00,
2013-02-26 03:52:00,15.4,7.1,29.88,NNW,338,6.7,6.7,69,0.00,,,0.00,VWS V14.01,2013-02-26 09:52:00,
2013-02-26 03:54:00,15.3,7.2,29.85,NE,45,0.0,0.9,70,0.00,,,0.00,VWS V14.01,2013-02-26 09:54:00,
2013-02-26 03:56:00,15.4,7.1,29.85,NNW,338,2.7,2.7,69,0.00,,,0.00,VWS V14.01,2013-02-26 09:56:00,
2013-02-26 03:58:00,15.4,7.1,29.85,ENE,68,2.7,2.7,69,0.00,,,0.00,VWS V14.01,2013-02-26 09:58:00,
2013-02-26 03:59:00,15.3,6.9,29.85,NNW,338,6.0,6.0,69,0.00,,,0.00,VWS V14.01,2013-02-26 09:59:00,
2013-02-26 04:00:00,15.4,7.1,29.85,NNW,338,2.7,2.7,69,0.00,,,0.00,VWS V14.01,2013-02-26 10:00:00,
2013-02-26 04:02:00,15.4,7.1,29.85,NNW,338,2.7,2.7,69,0.00,,,0.00,VWS V14.01,2013-02-26 10:02:00,
2013-02-26 04:04:00,15.3,6.9,29.88,NNE,22,4.0,4.0,69,0.00,,,0.00,VWS V14.01,2013-02-26 10:04:00,
2013-02-26 04:06:00,15.6,7.6,29.85,North,0,6.0,6.0,70,0.00,,,0.00,VWS V14.01,2013-02-26 10:06:00,
2013-02-26 04:08:00,15.6,7.6,29.85,North,0,0.0,1.1,70,0.00,,,0.00,VWS V14.01,2013-02-26 10:08:00,
2013-02-26 04:09:00,15.3,6.9,29.88,NNE,22,3.4,3.4,69,0.00,,,0.00,VWS V14.01,2013-02-26 10:09:00,
2013-02-26 04:10:00,15.6,7.6,29.85,NNW,338,6.7,6.7,70,0.00,,,0.00,VWS V14.01,2013-02-26 10:10:00,
2013-02-26 04:12:00,15.6,7.6,29.82,NNE,22,8.1,8.1,70,0.00,,,0.00,VWS V14.01,2013-02-26 10:12:00,
2013-02-26 04:14:00,15.3,6.6,29.88,NNE,22,0.0,0.0,68,0.00,,,0.00,VWS V14.01,2013-02-26 10:14:00,
2013-02-26 04:16:00,15.4,7.4,29.82,NNW,338,6.0,6.0,70,0.00,,,0.00,VWS V14.01,2013-02-26 10:16:00,
2013-02-26 04:18:00,15.4,7.4,29.82,ENE,68,4.0,4.0,70,0.00,,,0.00,VWS V14.01,2013-02-26 10:18:00,
2013-02-26 04:19:00,15.3,6.6,29.88,NNW,338,6.7,6.7,68,0.00,,,0.00,VWS V14.01,2013-02-26 10:19:00,
2013-02-26 04:20:00,15.4,7.4,29.82,NNW,338,8.7,8.7,70,0.00,,,0.00,VWS V14.01,2013-02-26 10:20:00,
2013-02-26 04:22:00,15.4,7.4,29.82,NNE,22,9.4,9.4,70,0.00,,,0.00,VWS V14.01,2013-02-26 10:22:00,
2013-02-26 04:24:00,15.3,6.6,29.88,NNE,22,6.7,6.7,68,0.00,,,0.00,VWS V14.01,2013-02-26 10:24:00,
2013-02-26 04:26:00,15.4,7.7,29.82,North,0,4.7,4.7,71,0.00,,,0.00,VWS V14.01,2013-02-26 10:26:00,
2013-02-26 04:28:00,15.4,7.7,29.82,NW,315,17.5,17.5,71,0.00,,,0.00,VWS V14.01,2013-02-26 10:28:00,
2013-02-26 04:29:00,15.3,6.6,29.88,ENE,68,0.0,1.1,68,0.00,,,0.00,VWS V14.01,2013-02-26 10:29:00,
2013-02-26 04:30:00,15.4,7.7,29.82,NNE,22,7.4,7.4,71,0.00,,,0.00,VWS V14.01,2013-02-26 10:30:00,
2013-02-26 04:32:00,15.4,7.7,29.82,NNE,22,4.0,4.0,71,0.00,,,0.00,VWS V14.01,2013-02-26 10:32:00,
2013-02-26 04:34:00,15.4,6.8,29.88,NNE,22,8.1,8.1,68,0.00,,,0.00,VWS V14.01,2013-02-26 10:34:00,
2013-02-26 04:36:00,15.4,7.7,29.82,NNE,22,4.0,4.0,71,0.00,,,0.00,VWS V14.01,2013-02-26 10:36:00,
2013-02-26 04:38:00,15.4,7.7,29.82,North,0,2.7,3.4,71,0.00,,,0.00,VWS V14.01,2013-02-26 10:38:00,
2013-02-26 04:39:00,15.4,7.1,29.88,NE,45,0.0,2.2,69,0.00,,,0.00,VWS V14.01,2013-02-26 10:39:00,
2013-02-26 04:40:00,15.4,7.7,29.82,NW,315,7.4,7.4,71,0.00,,,0.00,VWS V14.01,2013-02-26 10:40:00,
2013-02-26 04:42:00,15.4,7.7,29.82,NNW,338,7.4,7.4,71,0.00,,,0.00,VWS V14.01,2013-02-26 10:42:00,
2013-02-26 04:44:00,15.4,7.1,29.88,NNW,338,6.7,6.7,69,0.00,,,0.00,VWS V14.01,2013-02-26 10:44:00,
2013-02-26 04:46:00,15.4,7.7,29.82,NE,45,0.0,1.3,71,0.00,,,0.00,VWS V14.01,2013-02-26 10:46:00,
2013-02-26 04:48:00,15.4,7.7,29.82,NNE,22,0.0,0.0,71,0.00,,,0.00,VWS V14.01,2013-02-26 10:48:00,
2013-02-26 04:49:00,15.4,7.1,29.85,ENE,68,4.0,4.0,69,0.00,,,0.00,VWS V14.01,2013-02-26 10:49:00,
2013-02-26 04:50:00,15.6,7.9,29.82,NW,315,3.4,3.4,71,0.00,,,0.00,VWS V14.01,2013-02-26 10:50:00,
2013-02-26 04:52:00,15.6,7.9,29.82,North,0,6.0,6.0,71,0.00,,,0.00,VWS V14.01,2013-02-26 10:52:00,
2013-02-26 04:54:00,15.4,7.1,29.85,NNW,338,2.7,2.7,69,0.00,,,0.00,VWS V14.01,2013-02-26 10:54:00,
2013-02-26 04:56:00,15.6,7.9,29.82,NNE,22,0.0,0.0,71,0.00,,,0.00,VWS V14.01,2013-02-26 10:56:00,
2013-02-26 04:58:00,15.8,8.1,29.82,NW,315,3.4,3.4,71,0.00,,,0.00,VWS V14.01,2013-02-26 10:58:00,
2013-02-26 04:59:00,15.6,7.6,29.85,North,0,3.4,3.4,70,0.00,,,0.00,VWS V14.01,2013-02-26 10:59:00,
2013-02-26 05:00:00,15.8,8.1,29.82,NNW,338,0.0,1.3,71,0.00,,,0.00,VWS V14.01,2013-02-26 11:00:00,
2013-02-26 05:02:00,15.8,8.1,29.82,NW,315,4.0,4.0,71,0.00,,,0.00,VWS V14.01,2013-02-26 11:02:00,
2013-02-26 05:04:00,15.6,7.6,29.82,NNE,22,8.1,8.1,70,0.00,,,0.00,VWS V14.01,2013-02-26 11:04:00,
2013-02-26 05:06:00,15.8,8.1,29.82,NNE,22,6.0,6.0,71,0.00,,,0.00,VWS V14.01,2013-02-26 11:06:00,
2013-02-26 05:08:00,15.8,7.8,29.82,NNW,338,7.4,7.4,70,0.00,,,0.00,VWS V14.01,2013-02-26 11:08:00,
2013-02-26 05:09:00,15.4,7.4,29.82,NNW,338,4.7,4.7,70,0.00,,,0.00,VWS V14.01,2013-02-26 11:09:00,
2013-02-26 05:10:00,15.8,8.1,29.82,NE,45,3.4,3.4,71,0.00,,,0.00,VWS V14.01,2013-02-26 11:10:00,
2013-02-26 05:12:00,15.8,8.1,29.82,NE,45,4.0,4.0,71,0.00,,,0.00,VWS V14.01,2013-02-26 11:12:00,
2013-02-26 05:14:00,15.4,7.4,29.82,NNW,338,3.4,3.4,70,0.00,,,0.00,VWS V14.01,2013-02-26 11:14:00,
2013-02-26 05:16:00,15.8,8.1,29.82,NNE,22,3.4,3.4,71,0.00,,,0.00,VWS V14.01,2013-02-26 11:16:00,
2013-02-26 05:18:00,15.8,8.1,29.82,NNE,22,8.7,8.7,71,0.00,,,0.00,VWS V14.01,2013-02-26 11:18:00,
2013-02-26 05:19:00,15.6,7.9,29.82,NNW,338,2.7,2.7,71,0.00,,,0.00,VWS V14.01,2013-02-26 11:19:00,
2013-02-26 05:20:00,15.6,7.9,29.82,ENE,68,8.7,8.7,71,0.00,,,0.00,VWS V14.01,2013-02-26 11:20:00,
2013-02-26 05:22:00,15.6,7.9,29.82,NE,45,6.0,6.0,71,0.00,,,0.00,VWS V14.01,2013-02-26 11:22:00,
2013-02-26 05:24:00,15.4,7.7,29.82,NNE,22,4.0,4.0,71,0.00,,,0.00,VWS V14.01,2013-02-26 11:24:00,
2013-02-26 05:26:00,15.6,7.6,29.82,NNE,22,4.7,4.7,70,0.00,,,0.00,VWS V14.01,2013-02-26 11:26:00,
2013-02-26 05:28:00,15.6,7.6,29.82,NNE,22,2.7,2.7,70,0.00,,,0.00,VWS V14.01,2013-02-26 11:28:00,
2013-02-26 05:29:00,15.4,7.7,29.82,NNW,338,7.4,7.4,71,0.00,,,0.00,VWS V14.01,2013-02-26 11:29:00,
2013-02-26 05:30:00,15.6,7.6,29.82,North,0,8.7,8.7,70,0.00,,,0.00,VWS V14.01,2013-02-26 11:30:00,
2013-02-26 05:32:00,15.4,7.4,29.82,NE,45,8.1,8.1,70,0.00,,,0.00,VWS V14.01,2013-02-26 11:32:00,
2013-02-26 05:34:00,15.4,7.7,29.82,North,0,8.1,8.1,71,0.00,,,0.00,VWS V14.01,2013-02-26 11:34:00,
2013-02-26 05:36:00,15.4,7.4,29.82,NE,45,3.4,3.4,70,0.00,,,0.00,VWS V14.01,2013-02-26 11:36:00,
2013-02-26 05:38:00,15.4,7.4,29.82,NNE,22,6.0,6.0,70,0.00,,,0.00,VWS V14.01,2013-02-26 11:38:00,
2013-02-26 05:39:00,15.4,7.7,29.82,NNW,338,0.0,0.0,71,0.00,,,0.00,VWS V14.01,2013-02-26 11:39:00,
2013-02-26 05:40:00,15.4,7.4,29.82,North,0,8.1,8.1,70,0.00,,,0.00,VWS V14.01,2013-02-26 11:40:00,
2013-02-26 05:42:00,15.4,7.4,29.82,NNE,22,4.7,4.7,70,0.00,,,0.00,VWS V14.01,2013-02-26 11:42:00,
2013-02-26 05:44:00,15.6,7.9,29.82,NNW,338,3.4,3.4,71,0.00,,,0.00,VWS V14.01,2013-02-26 11:44:00,
2013-02-26 05:46:00,15.3,7.2,29.82,NNW,338,3.4,3.4,70,0.00,,,0.00,VWS V14.01,2013-02-26 11:46:00,
2013-02-26 05:48:00,15.3,7.2,29.82,NNW,338,9.4,9.4,70,0.00,,,0.00,VWS V14.01,2013-02-26 11:48:00,
2013-02-26 05:49:00,15.8,8.1,29.82,NNE,22,0.0,0.0,71,0.00,,,0.00,VWS V14.01,2013-02-26 11:49:00,
2013-02-26 05:50:00,15.3,7.2,29.82,NE,45,7.4,7.4,70,0.00,,,0.00,VWS V14.01,2013-02-26 11:50:00,
2013-02-26 05:52:00,15.3,7.2,29.82,NNE,22,2.7,2.7,70,0.00,,,0.00,VWS V14.01,2013-02-26 11:52:00,
2013-02-26 05:54:00,15.8,8.1,29.82,NNW,338,0.0,0.0,71,0.00,,,0.00,VWS V14.01,2013-02-26 11:54:00,
2013-02-26 05:56:00,15.3,7.2,29.82,North,0,4.7,4.7,70,0.00,,,0.00,VWS V14.01,2013-02-26 11:56:00,
2013-02-26 05:58:00,15.3,7.2,29.82,NE,45,2.7,2.7,70,0.00,,,0.00,VWS V14.01,2013-02-26 11:58:00,
2013-02-26 05:59:00,15.8,8.1,29.82,NNE,22,8.7,8.7,71,0.00,,,0.00,VWS V14.01,2013-02-26 11:59:00,
2013-02-26 06:00:00,15.3,7.2,29.82,NNE,22,3.4,3.4,70,0.00,,,0.00,VWS V14.01,2013-02-26 12:00:00,
2013-02-26 06:02:00,15.3,7.2,29.82,NE,45,6.0,6.0,70,0.00,,,0.00,VWS V14.01,2013-02-26 12:02:00,
2013-02-26 06:04:00,15.8,8.1,29.82,NE,45,2.7,2.7,71,0.00,,,0.00,VWS V14.01,2013-02-26 12:04:00,
2013-02-26 06:06:00,15.3,7.2,29.82,NNE,22,4.0,4.0,70,0.00,,,0.00,VWS V14.01,2013-02-26 12:06:00,
2013-02-26 06:08:00,15.3,7.2,29.82,NNE,22,0.0,1.3,70,0.00,,,0.00,VWS V14.01,2013-02-26 12:08:00,
2013-02-26 06:09:00,15.8,8.1,29.82,NE,45,4.0,4.0,71,0.00,,,0.00,VWS V14.01,2013-02-26 12:09:00,
2013-02-26 06:10:00,15.3,7.2,29.82,NNE,22,6.0,6.0,70,0.00,,,0.00,VWS V14.01,2013-02-26 12:10:00,
2013-02-26 06:12:00,15.3,7.2,29.82,NNE,22,4.7,4.7,70,0.00,,,0.00,VWS V14.01,2013-02-26 12:12:00,
2013-02-26 06:13:00,15.6,7.9,29.82,ENE,68,4.7,4.7,71,0.00,,,0.00,VWS V14.01,2013-02-26 12:13:00,
2013-02-26 06:14:00,15.3,7.2,29.82,NE,45,7.4,7.4,70,0.00,,,0.00,VWS V14.01,2013-02-26 12:14:00,
2013-02-26 06:16:00,15.3,7.2,29.82,NE,45,0.0,2.5,70,0.00,,,0.00,VWS V14.01,2013-02-26 12:16:00,
2013-02-26 06:18:00,15.6,7.6,29.82,NNE,22,4.0,4.0,70,0.00,,,0.00,VWS V14.01,2013-02-26 12:18:00,
2013-02-26 06:20:00,15.4,7.4,29.82,North,0,3.4,3.4,70,0.00,,,0.00,VWS V14.01,2013-02-26 12:20:00,
2013-02-26 06:22:00,15.4,7.4,29.82,North,0,4.0,4.0,70,0.00,,,0.00,VWS V14.01,2013-02-26 12:22:00,
2013-02-26 06:23:00,15.4,7.4,29.82,NE,45,6.7,6.7,70,0.00,,,0.00,VWS V14.01,2013-02-26 12:23:00,
2013-02-26 06:24:00,15.4,7.4,29.82,NNE,22,2.7,2.7,70,0.00,,,0.00,VWS V14.01,2013-02-26 12:24:00,
2013-02-26 06:26:00,15.4,7.4,29.82,ESE,112,3.4,3.4,70,0.00,,,0.00,VWS V14.01,2013-02-26 12:26:00,
2013-02-26 06:28:00,15.4,7.4,29.82,NNE,22,6.7,6.7,70,0.00,,,0.00,VWS V14.01,2013-02-26 12:28:00,
2013-02-26 06:30:00,15.4,7.1,29.82,North,0,4.0,4.0,69,0.00,,,0.00,VWS V14.01,2013-02-26 12:30:00,
2013-02-26 06:32:00,15.6,7.3,29.82,NE,45,3.4,3.4,69,0.00,,,0.00,VWS V14.01,2013-02-26 12:32:00,
2013-02-26 06:33:00,15.4,7.4,29.82,North,0,3.4,3.4,70,0.00,,,0.00,VWS V14.01,2013-02-26 12:33:00,
2013-02-26 06:34:00,15.6,7.3,29.82,NNW,338,4.7,4.7,69,0.00,,,0.00,VWS V14.01,2013-02-26 12:34:00,
2013-02-26 06:36:00,15.8,7.4,29.82,NNE,22,3.4,3.4,69,0.00,,,0.00,VWS V14.01,2013-02-26 12:36:00,
2013-02-26 06:38:00,15.3,7.2,29.82,NNE,22,4.0,4.0,70,0.00,,,0.00,VWS V14.01,2013-02-26 12:38:00,
2013-02-26 06:40:00,15.8,7.8,29.82,North,0,4.0,4.0,70,0.00,,,0.00,VWS V14.01,2013-02-26 12:40:00,
2013-02-26 06:42:00,15.8,7.8,29.82,NNE,22,7.4,7.4,70,0.00,,,0.00,VWS V14.01,2013-02-26 12:42:00,
2013-02-26 06:43:00,15.3,7.2,29.82,NNE,22,3.4,3.4,70,0.00,,,0.00,VWS V14.01,2013-02-26 12:43:00,
2013-02-26 06:44:00,15.8,7.8,29.82,NNE,22,7.4,7.4,70,0.00,,,0.00,VWS V14.01,2013-02-26 12:44:00,
2013-02-26 06:46:00,16.0,7.6,29.82,ENE,68,6.0,6.0,69,0.00,,,0.00,VWS V14.01,2013-02-26 12:46:00,
2013-02-26 06:48:00,15.3,7.2,29.82,North,0,0.0,2.0,70,0.00,,,0.00,VWS V14.01,2013-02-26 12:48:00,
2013-02-26 06:50:00,16.2,8.1,29.82,North,0,4.0,4.0,70,0.00,,,0.00,VWS V14.01,2013-02-26 12:50:00,
2013-02-26 06:52:00,16.3,8.3,29.82,NE,45,4.0,4.0,70,0.00,,,0.00,VWS V14.01,2013-02-26 12:52:00,
2013-02-26 06:53:00,15.3,7.2,29.82,NE,45,6.0,6.0,70,0.00,,,0.00,VWS V14.01,2013-02-26 12:53:00,
2013-02-26 06:54:00,16.5,8.5,29.82,NNW,338,4.7,4.7,70,0.00,,,0.00,VWS V14.01,2013-02-26 12:54:00,
2013-02-26 06:56:00,16.5,8.5,29.82,North,0,7.4,7.4,70,0.00,,,0.00,VWS V14.01,2013-02-26 12:56:00,
2013-02-26 06:58:00,15.3,7.2,29.82,NNE,22,4.0,4.0,70,0.00,,,0.00,VWS V14.01,2013-02-26 12:58:00,
2013-02-26 07:00:00,16.7,8.9,29.82,NNE,22,4.0,4.0,71,0.00,,,0.00,VWS V14.01,2013-02-26 13:00:00,
2013-02-26 07:02:00,16.9,9.1,29.82,NNW,338,4.0,4.0,71,0.00,,,0.00,VWS V14.01,2013-02-26 13:02:00,
2013-02-26 07:03:00,15.3,7.2,29.82,NE,45,3.4,3.4,70,0.00,,,0.00,VWS V14.01,2013-02-26 13:03:00,
2013-02-26 07:04:00,16.9,9.1,29.82,NE,45,6.7,6.7,71,0.00,,,0.00,VWS V14.01,2013-02-26 13:04:00,
2013-02-26 07:06:00,17.1,9.3,29.82,NE,45,0.0,2.0,71,0.00,,,0.00,VWS V14.01,2013-02-26 13:06:00,
2013-02-26 07:08:00,15.3,7.2,29.82,North,0,7.4,7.4,70,0.00,,,0.00,VWS V14.01,2013-02-26 13:08:00,
2013-02-26 07:10:00,17.4,9.6,29.82,NE,45,8.1,8.1,71,0.00,,,0.00,VWS V14.01,2013-02-26 13:10:00,
2013-02-26 07:12:00,17.8,10.0,29.82,NNE,22,8.7,8.7,71,0.00,,,0.00,VWS V14.01,2013-02-26 13:12:00,
2013-02-26 07:13:00,15.4,7.4,29.82,North,0,4.0,4.0,70,0.00,,,0.00,VWS V14.01,2013-02-26 13:13:00,
2013-02-26 07:14:00,17.8,10.0,29.82,NW,315,4.0,4.0,71,0.00,,,0.00,VWS V14.01,2013-02-26 13:14:00,
2013-02-26 07:16:00,17.8,10.0,29.82,NNW,338,4.0,4.0,71,0.00,,,0.00,VWS V14.01,2013-02-26 13:16:00,
2013-02-26 07:18:00,15.4,7.1,29.82,East,90,4.7,4.7,69,0.00,,,0.00,VWS V14.01,2013-02-26 13:18:00,
2013-02-26 07:20:00,18.1,10.3,29.82,NW,315,3.4,3.4,71,0.00,,,0.00,VWS V14.01,2013-02-26 13:20:00,
2013-02-26 07:22:00,18.3,10.5,29.82,North,0,4.7,4.7,71,0.00,,,0.00,VWS V14.01,2013-02-26 13:22:00,
2013-02-26 07:23:00,15.6,7.3,29.82,ENE,68,6.0,6.0,69,0.00,,,0.00,VWS V14.01,2013-02-26 13:23:00,
2013-02-26 07:24:00,18.7,10.9,29.82,North,0,3.4,3.4,71,0.00,,,0.00,VWS V14.01,2013-02-26 13:24:00,
2013-02-26 07:26:00,18.7,10.9,29.82,NNW,338,3.4,3.4,71,0.00,,,0.00,VWS V14.01,2013-02-26 13:26:00,
2013-02-26 07:28:00,15.8,7.4,29.82,NNE,22,4.0,4.0,69,0.00,,,0.00,VWS V14.01,2013-02-26 13:28:00,
2013-02-26 07:30:00,19.2,11.4,29.82,NW,315,4.0,4.0,71,0.00,,,0.00,VWS V14.01,2013-02-26 13:30:00,
2013-02-26 07:32:00,19.4,11.6,29.82,NNW,338,4.0,4.0,71,0.00,,,0.00,VWS V14.01,2013-02-26 13:32:00,
2013-02-26 07:33:00,15.8,7.8,29.82,NE,45,9.4,9.4,70,0.00,,,0.00,VWS V14.01,2013-02-26 13:33:00,
2013-02-26 07:34:00,19.6,11.4,29.82,NE,45,6.7,6.7,70,0.00,,,0.00,VWS V14.01,2013-02-26 13:34:00,
2013-02-26 07:36:00,19.8,11.6,29.82,NNW,338,6.0,6.0,70,0.00,,,0.00,VWS V14.01,2013-02-26 13:36:00,
2013-02-26 07:38:00,16.0,7.6,29.82,ENE,68,8.1,8.1,69,0.00,,,0.00,VWS V14.01,2013-02-26 13:38:00,
2013-02-26 07:40:00,19.8,11.2,29.82,North,0,4.0,4.0,69,0.00,,,0.00,VWS V14.01,2013-02-26 13:40:00,
2013-02-26 07:42:00,19.8,11.2,29.82,North,0,6.7,6.7,69,0.00,,,0.00,VWS V14.01,2013-02-26 13:42:00,
2013-02-26 07:43:00,16.3,8.3,29.82,NNE,22,6.7,6.7,70,0.00,,,0.00,VWS V14.01,2013-02-26 13:43:00,
2013-02-26 07:44:00,19.9,11.4,29.82,NNE,22,6.0,6.0,69,0.00,,,0.00,VWS V14.01,2013-02-26 13:44:00,
2013-02-26 07:46:00,20.3,11.8,29.82,North,0,0.0,2.0,69,0.00,,,0.00,VWS V14.01,2013-02-26 13:46:00,
2013-02-26 07:48:00,16.5,8.5,29.82,WNW,292,8.1,8.1,70,0.00,,,0.00,VWS V14.01,2013-02-26 13:48:00,
2013-02-26 07:50:00,20.3,11.8,29.82,NNE,22,6.7,6.7,69,0.00,,,0.00,VWS V14.01,2013-02-26 13:50:00,
2013-02-26 07:52:00,20.5,11.9,29.82,North,0,4.0,4.0,69,0.00,,,0.00,VWS V14.01,2013-02-26 13:52:00,
2013-02-26 07:53:00,16.7,8.9,29.82,North,0,4.0,4.0,71,0.00,,,0.00,VWS V14.01,2013-02-26 13:53:00,
2013-02-26 07:54:00,20.7,11.8,29.82,NE,45,3.4,3.4,68,0.00,,,0.00,VWS V14.01,2013-02-26 13:54:00,
2013-02-26 07:56:00,21.0,12.1,29.82,NE,45,6.0,6.0,68,0.00,,,0.00,VWS V14.01,2013-02-26 13:56:00,
2013-02-26 07:58:00,17.2,9.5,29.82,NE,45,6.0,6.0,71,0.00,,,0.00,VWS V14.01,2013-02-26 13:58:00,
2013-02-26 08:00:00,21.4,12.5,29.82,WNW,292,3.4,3.4,68,0.00,,,0.00,VWS V14.01,2013-02-26 14:00:00,
2013-02-26 08:02:00,21.7,13.1,29.82,NW,315,4.7,4.7,69,0.00,,,0.00,VWS V14.01,2013-02-26 14:02:00,
2013-02-26 08:03:00,17.8,10.0,29.82,NNW,338,6.0,6.0,71,0.00,,,0.00,VWS V14.01,2013-02-26 14:03:00,
2013-02-26 08:04:00,21.6,12.6,29.82,NNW,338,4.7,4.7,68,0.00,,,0.00,VWS V14.01,2013-02-26 14:04:00,
2013-02-26 08:06:00,21.9,13.0,29.82,NNW,338,0.0,0.0,68,0.00,,,0.00,VWS V14.01,2013-02-26 14:06:00,
2013-02-26 08:08:00,17.8,10.0,29.82,NW,315,6.0,6.0,71,0.00,,,0.00,VWS V14.01,2013-02-26 14:08:00,
2013-02-26 08:10:00,21.6,12.6,29.82,NNW,338,6.0,6.0,68,0.00,,,0.00,VWS V14.01,2013-02-26 14:10:00,
2013-02-26 08:12:00,21.6,12.6,29.82,NNE,22,4.7,4.7,68,0.00,,,0.00,VWS V14.01,2013-02-26 14:12:00,
2013-02-26 08:13:00,18.3,10.5,29.82,NNE,22,4.0,4.0,71,0.00,,,0.00,VWS V14.01,2013-02-26 14:13:00,
2013-02-26 08:14:00,21.9,13.0,29.82,ENE,68,4.0,4.0,68,0.00,,,0.00,VWS V14.01,2013-02-26 14:14:00,
2013-02-26 08:16:00,22.5,13.8,29.82,NE,45,4.7,4.7,69,0.00,,,0.00,VWS V14.01,2013-02-26 14:16:00,
2013-02-26 08:18:00,18.7,10.9,29.82,NE,45,3.4,3.4,71,0.00,,,0.00,VWS V14.01,2013-02-26 14:18:00,
2013-02-26 08:20:00,22.8,13.9,29.82,NNE,22,3.4,3.4,68,0.00,,,0.00,VWS V14.01,2013-02-26 14:20:00,
2013-02-26 08:22:00,23.2,13.9,29.82,NNE,22,3.4,3.4,67,0.00,,,0.00,VWS V14.01,2013-02-26 14:22:00,
2013-02-26 08:23:00,19.2,11.4,29.82,NNE,22,6.0,6.0,71,0.00,,,0.00,VWS V14.01,2013-02-26 14:23:00,
2013-02-26 08:24:00,23.2,13.9,29.82,NNW,338,8.7,8.7,67,0.00,,,0.00,VWS V14.01,2013-02-26 14:24:00,
2013-02-26 08:26:00,23.0,14.0,29.82,North,0,4.7,4.7,68,0.00,,,0.00,VWS V14.01,2013-02-26 14:26:00,
2013-02-26 08:28:00,19.8,11.6,29.82,NNW,338,7.4,7.4,70,0.00,,,0.00,VWS V14.01,2013-02-26 14:28:00,
2013-02-26 08:30:00,23.5,14.2,29.82,NNE,22,9.4,9.4,67,0.00,,,0.00,VWS V14.01,2013-02-26 14:30:00,
2013-02-26 08:32:00,24.1,14.7,29.82,North,0,4.7,4.7,67,0.00,,,0.00,VWS V14.01,2013-02-26 14:32:00,
2013-02-26 08:33:00,19.8,11.2,29.82,NNE,22,6.7,6.7,69,0.00,,,0.00,VWS V14.01,2013-02-26 14:33:00,
2013-02-26 08:34:00,24.1,14.4,29.82,NNE,22,6.7,6.7,66,0.00,,,0.00,VWS V14.01,2013-02-26 14:34:00,
2013-02-26 08:36:00,23.9,13.9,29.82,NNW,338,6.0,6.0,65,0.00,,,0.00,VWS V14.01,2013-02-26 14:36:00,
2013-02-26 08:38:00,20.3,11.8,29.82,NW,315,3.4,3.4,69,0.00,,,0.00,VWS V14.01,2013-02-26 14:38:00,
2013-02-26 08:40:00,24.4,14.4,29.82,North,0,3.4,3.4,65,0.00,,,0.00,VWS V14.01,2013-02-26 14:40:00,
2013-02-26 08:42:00,24.4,14.4,29.82,NE,45,3.4,3.4,65,0.00,,,0.00,VWS V14.01,2013-02-26 14:42:00,
2013-02-26 08:43:00,20.5,11.9,29.82,NE,45,3.4,3.4,69,0.00,,,0.00,VWS V14.01,2013-02-26 14:43:00,
2013-02-26 08:44:00,24.4,14.0,29.82,East,90,0.0,2.5,64,0.00,,,0.00,VWS V14.01,2013-02-26 14:44:00,
2013-02-26 08:46:00,25.2,15.1,29.82,ENE,68,0.0,0.0,65,0.00,,,0.00,VWS V14.01,2013-02-26 14:46:00,
2013-02-26 08:48:00,21.0,12.1,29.82,NE,45,4.7,4.7,68,0.00,,,0.00,VWS V14.01,2013-02-26 14:48:00,
2013-02-26 08:50:00,25.3,15.2,29.82,North,0,4.0,4.0,65,0.00,,,0.00,VWS V14.01,2013-02-26 14:50:00,
2013-02-26 08:52:00,25.3,15.2,29.82,ENE,68,8.7,8.7,65,0.00,,,0.00,VWS V14.01,2013-02-26 14:52:00,
2013-02-26 08:53:00,21.7,12.8,29.82,NNW,338,3.4,3.4,68,0.00,,,0.00,VWS V14.01,2013-02-26 14:53:00,
2013-02-26 08:54:00,25.2,14.7,29.82,ENE,68,4.0,4.0,64,0.00,,,0.00,VWS V14.01,2013-02-26 14:54:00,
2013-02-26 08:56:00,25.3,14.9,29.82,NE,45,4.7,4.7,64,0.00,,,0.00,VWS V14.01,2013-02-26 14:56:00,
2013-02-26 08:58:00,21.9,13.0,29.82,NW,315,0.0,0.0,68,0.00,,,0.00,VWS V14.01,2013-02-26 14:58:00,
2013-02-26 09:00:00,25.0,14.2,29.82,East,90,7.4,7.4,63,0.00,,,0.00,VWS V14.01,2013-02-26 15:00:00,
2013-02-26 09:02:00,25.3,14.5,29.82,NE,45,2.7,2.7,63,0.00,,,0.00,VWS V14.01,2013-02-26 15:02:00,
2013-02-26 09:03:00,21.7,12.8,29.82,North,0,8.7,8.7,68,0.00,,,0.00,VWS V14.01,2013-02-26 15:03:00,
2013-02-26 09:04:00,25.3,14.9,29.82,NW,315,4.0,4.0,64,0.00,,,0.00,VWS V14.01,2013-02-26 15:04:00,
2013-02-26 09:06:00,25.3,14.9,29.82,NE,45,4.0,4.0,64,0.00,,,0.00,VWS V14.01,2013-02-26 15:06:00,
2013-02-26 09:08:00,22.5,13.8,29.82,NNE,22,6.7,6.7,69,0.00,,,0.00,VWS V14.01,2013-02-26 15:08:00,
2013-02-26 09:10:00,25.5,14.7,29.82,East,90,4.7,4.7,63,0.00,,,0.00,VWS V14.01,2013-02-26 15:10:00,
2013-02-26 09:12:00,25.3,14.5,29.85,NNE,22,4.0,4.0,63,0.00,,,0.00,VWS V14.01,2013-02-26 15:12:00,
2013-02-26 09:13:00,23.2,13.9,29.82,NE,45,4.0,4.0,67,0.00,,,0.00,VWS V14.01,2013-02-26 15:13:00,
2013-02-26 09:14:00,25.5,14.7,29.85,ENE,68,2.7,2.7,63,0.00,,,0.00,VWS V14.01,2013-02-26 15:14:00,
2013-02-26 09:16:00,25.9,15.0,29.85,SE,135,3.4,3.4,63,0.00,,,0.00,VWS V14.01,2013-02-26 15:16:00,
2013-02-26 09:18:00,23.0,14.0,29.82,North,0,6.0,6.0,68,0.00,,,0.00,VWS V14.01,2013-02-26 15:18:00,
2013-02-26 09:20:00,26.1,15.2,29.85,NNE,22,0.0,2.0,63,0.00,,,0.00,VWS V14.01,2013-02-26 15:20:00,
2013-02-26 09:22:00,26.2,15.4,29.85,NW,315,2.7,2.7,63,0.00,,,0.00,VWS V14.01,2013-02-26 15:22:00,
2013-02-26 09:23:00,23.9,14.6,29.82,NNE,22,3.4,3.4,67,0.00,,,0.00,VWS V14.01,2013-02-26 15:23:00,
2013-02-26 09:24:00,26.1,15.2,29.85,NNW,338,0.0,2.2,63,0.00,,,0.00,VWS V14.01,2013-02-26 15:24:00,
2013-02-26 09:26:00,26.2,15.4,29.82,ENE,68,4.7,4.7,63,0.00,,,0.00,VWS V14.01,2013-02-26 15:26:00,
2013-02-26 09:28:00,23.7,13.7,29.82,North,0,6.0,6.0,65,0.00,,,0.00,VWS V14.01,2013-02-26 15:28:00,
2013-02-26 09:30:00,26.2,15.0,29.82,NE,45,3.4,3.4,62,0.00,,,0.00,VWS V14.01,2013-02-26 15:30:00,
2013-02-26 09:32:00,26.8,15.5,29.82,SSE,158,0.0,1.6,62,0.00,,,0.00,VWS V14.01,2013-02-26 15:32:00,
2013-02-26 09:33:00,24.4,14.4,29.82,NE,45,4.0,4.0,65,0.00,,,0.00,VWS V14.01,2013-02-26 15:33:00,
2013-02-26 09:34:00,27.0,15.7,29.82,NE,45,7.4,7.4,62,0.00,,,0.00,VWS V14.01,2013-02-26 15:34:00,
2013-02-26 09:36:00,27.1,15.9,29.82,NNE,22,4.0,4.0,62,0.00,,,0.00,VWS V14.01,2013-02-26 15:36:00,
2013-02-26 09:38:00,25.2,15.1,29.82,WNW,292,0.0,0.0,65,0.00,,,0.00,VWS V14.01,2013-02-26 15:38:00,
2013-02-26 09:40:00,27.9,15.8,29.82,NE,45,0.0,2.5,60,0.00,,,0.00,VWS V14.01,2013-02-26 15:40:00,
2013-02-26 09:42:00,28.0,16.0,29.82,North,0,3.4,3.4,60,0.00,,,0.00,VWS V14.01,2013-02-26 15:42:00,
2013-02-26 09:43:00,25.5,15.4,29.82,East,90,7.4,7.4,65,0.00,,,0.00,VWS V14.01,2013-02-26 15:43:00,
2013-02-26 09:44:00,28.2,16.1,29.82,East,90,0.0,1.6,60,0.00,,,0.00,VWS V14.01,2013-02-26 15:44:00,
2013-02-26 09:46:00,28.2,15.8,29.82,NNE,22,7.4,7.4,59,0.00,,,0.00,VWS V14.01,2013-02-26 15:46:00,
2013-02-26 09:48:00,25.3,14.9,29.82,NE,45,8.1,8.1,64,0.00,,,0.00,VWS V14.01,2013-02-26 15:48:00,
2013-02-26 09:50:00,28.6,15.3,29.82,NE,45,4.0,4.0,57,0.00,,,0.00,VWS V14.01,2013-02-26 15:50:00,
2013-02-26 09:52:00,29.5,16.1,29.82,North,0,3.4,3.4,57,0.00,,,0.00,VWS V14.01,2013-02-26 15:52:00,
2013-02-26 09:53:00,25.2,14.4,29.82,NE,45,3.4,3.4,63,0.00,,,0.00,VWS V14.01,2013-02-26 15:53:00,
2013-02-26 09:54:00,29.8,16.5,29.82,East,90,4.0,4.0,57,0.00,,,0.00,VWS V14.01,2013-02-26 15:54:00,
2013-02-26 09:56:00,30.0,16.6,29.82,NNW,338,4.7,4.7,57,0.00,,,0.00,VWS V14.01,2013-02-26 15:56:00,
2013-02-26 09:58:00,25.3,14.9,29.82,North,0,4.0,4.0,64,0.00,,,0.00,VWS V14.01,2013-02-26 15:58:00,
2013-02-26 10:00:00,30.4,16.2,29.82,NNE,22,0.0,2.2,55,0.00,,,0.00,VWS V14.01,2013-02-26 16:00:00,
2013-02-26 10:02:00,31.3,17.0,29.82,NNE,22,4.0,4.0,55,0.00,,,0.00,VWS V14.01,2013-02-26 16:02:00,
2013-02-26 10:03:00,25.3,14.5,29.85,ENE,68,4.7,4.7,63,0.00,,,0.00,VWS V14.01,2013-02-26 16:03:00,
2013-02-26 10:04:00,31.6,16.9,29.82,NE,45,3.4,3.4,54,0.00,,,0.00,VWS V14.01,2013-02-26 16:04:00,
2013-02-26 10:06:00,32.0,16.8,29.82,ENE,68,0.0,1.3,53,0.00,,,0.00,VWS V14.01,2013-02-26 16:06:00,
2013-02-26 10:08:00,25.9,15.0,29.85,SE,135,3.4,3.4,63,0.00,,,0.00,VWS V14.01,2013-02-26 16:08:00,
2013-02-26 10:10:00,31.8,16.2,29.82,NE,45,3.4,3.4,52,0.00,,,0.00,VWS V14.01,2013-02-26 16:10:00,
2013-02-26 10:12:00,31.8,16.2,29.82,North,0,10.1,10.1,52,0.00,,,0.00,VWS V14.01,2013-02-26 16:12:00,
2013-02-26 10:13:00,26.2,15.4,29.85,NNE,22,3.4,3.4,63,0.00,,,0.00,VWS V14.01,2013-02-26 16:13:00,
2013-02-26 10:14:00,31.1,14.6,29.82,NNW,338,8.1,8.1,50,0.00,,,0.00,VWS V14.01,2013-02-26 16:14:00,
2013-02-26 10:16:00,31.1,14.6,29.82,NNE,22,4.0,4.0,50,0.00,,,0.00,VWS V14.01,2013-02-26 16:16:00,
2013-02-26 10:18:00,26.2,15.4,29.82,NE,45,4.0,4.0,63,0.00,,,0.00,VWS V14.01,2013-02-26 16:18:00,
2013-02-26 10:20:00,32.2,15.6,29.82,NNW,338,3.4,3.4,50,0.00,,,0.00,VWS V14.01,2013-02-26 16:20:00,
2013-02-26 10:22:00,32.5,16.0,29.82,ENE,68,6.0,6.0,50,0.00,,,0.00,VWS V14.01,2013-02-26 16:22:00,
2013-02-26 10:23:00,26.6,15.7,29.82,North,0,4.7,4.7,63,0.00,,,0.00,VWS V14.01,2013-02-26 16:23:00,
2013-02-26 10:24:00,32.7,15.7,29.82,East,90,3.4,3.4,49,0.00,,,0.00,VWS V14.01,2013-02-26 16:24:00,
2013-02-26 10:26:00,33.3,16.2,29.82,NNW,338,3.4,3.4,49,0.00,,,0.00,VWS V14.01,2013-02-26 16:26:00,
2013-02-26 10:28:00,27.1,15.9,29.82,NNW,338,4.0,4.0,62,0.00,,,0.00,VWS V14.01,2013-02-26 16:28:00,
2013-02-26 10:30:00,33.6,16.0,29.82,WNW,292,3.4,3.4,48,0.00,,,0.00,VWS V14.01,2013-02-26 16:30:00,
2013-02-26 10:32:00,33.4,15.4,29.82,North,0,6.0,6.0,47,0.00,,,0.00,VWS V14.01,2013-02-26 16:32:00,
2013-02-26 10:33:00,27.9,15.8,29.82,SSE,158,4.0,4.0,60,0.00,,,0.00,VWS V14.01,2013-02-26 16:33:00,
2013-02-26 10:34:00,33.6,15.6,29.82,NE,45,4.7,4.7,47,0.00,,,0.00,VWS V14.01,2013-02-26 16:34:00,
2013-02-26 10:36:00,34.0,15.9,29.82,NE,45,3.4,3.4,47,0.00,,,0.00,VWS V14.01,2013-02-26 16:36:00,
2013-02-26 10:38:00,28.4,15.9,29.82,NNE,22,6.7,6.7,59,0.00,,,0.00,VWS V14.01,2013-02-26 16:38:00,
2013-02-26 10:40:00,34.3,15.7,29.82,ENE,68,3.4,3.4,46,0.00,,,0.00,VWS V14.01,2013-02-26 16:40:00,
2013-02-26 10:42:00,34.0,14.9,29.82,ENE,68,9.4,9.4,45,0.00,,,0.00,VWS V14.01,2013-02-26 16:42:00,
2013-02-26 10:43:00,29.3,16.0,29.82,NE,45,0.0,1.3,57,0.00,,,0.00,VWS V14.01,2013-02-26 16:43:00,
2013-02-26 10:44:00,33.6,14.6,29.82,East,90,10.7,10.7,45,0.00,,,0.00,VWS V14.01,2013-02-26 16:44:00,
2013-02-26 10:46:00,33.8,14.7,29.82,ENE,68,4.0,4.0,45,0.00,,,0.00,VWS V14.01,2013-02-26 16:46:00,
2013-02-26 10:48:00,30.0,16.6,29.82,NNW,338,4.7,4.7,57,0.00,,,0.00,VWS V14.01,2013-02-26 16:48:00,
2013-02-26 10:50:00,34.7,15.6,29.82,North,0,0.0,0.0,45,0.00,,,0.00,VWS V14.01,2013-02-26 16:50:00,
2013-02-26 10:52:00,35.4,16.2,29.82,NW,315,4.0,4.0,45,0.00,,,0.00,VWS V14.01,2013-02-26 16:52:00,
2013-02-26 10:53:00,31.1,16.8,29.82,NE,45,0.0,0.0,55,0.00,,,0.00,VWS V14.01,2013-02-26 16:53:00,
2013-02-26 10:54:00,35.1,15.9,29.82,NNW,338,6.0,6.0,45,0.00,,,0.00,VWS V14.01,2013-02-26 16:54:00,
2013-02-26 10:56:00,35.4,16.2,29.82,NE,45,0.0,1.3,45,0.00,,,0.00,VWS V14.01,2013-02-26 16:56:00,
2013-02-26 10:58:00,32.0,16.8,29.82,ENE,68,0.0,1.3,53,0.00,,,0.00,VWS V14.01,2013-02-26 16:58:00,
2013-02-26 11:00:00,35.6,15.3,29.82,ENE,68,8.7,8.7,43,0.00,,,0.00,VWS V14.01,2013-02-26 17:00:00,
2013-02-26 11:02:00,35.6,15.3,29.82,North,0,3.4,3.4,43,0.00,,,0.00,VWS V14.01,2013-02-26 17:02:00,
2013-02-26 11:03:00,31.8,16.2,29.82,NE,45,3.4,3.4,52,0.00,,,0.00,VWS V14.01,2013-02-26 17:03:00,
2013-02-26 11:04:00,35.8,15.5,29.82,North,0,0.0,1.3,43,0.00,,,0.00,VWS V14.01,2013-02-26 17:04:00,
2013-02-26 11:06:00,36.0,15.6,29.82,East,90,4.0,4.0,43,0.00,,,0.00,VWS V14.01,2013-02-26 17:06:00,
2013-02-26 11:08:00,31.1,14.6,29.82,NNE,22,4.0,4.0,50,0.00,,,0.00,VWS V14.01,2013-02-26 17:08:00,
2013-02-26 11:10:00,36.3,16.0,29.82,NNW,338,2.7,2.7,43,0.00,,,0.00,VWS V14.01,2013-02-26 17:10:00,
2013-02-26 11:12:00,36.3,16.0,29.80,NE,45,4.0,4.0,43,0.00,,,0.00,VWS V14.01,2013-02-26 17:12:00,
2013-02-26 11:13:00,32.5,16.0,29.82,NE,45,8.1,8.1,50,0.00,,,0.00,VWS V14.01,2013-02-26 17:13:00,
2013-02-26 11:14:00,36.1,15.3,29.80,NNE,22,6.0,6.0,42,0.00,,,0.00,VWS V14.01,2013-02-26 17:14:00,
2013-02-26 11:16:00,36.0,15.1,29.80,NNE,22,8.7,8.7,42,0.00,,,0.00,VWS V14.01,2013-02-26 17:16:00,
2013-02-26 11:18:00,33.3,16.2,29.82,NNW,338,3.4,3.4,49,0.00,,,0.00,VWS V14.01,2013-02-26 17:18:00,
2013-02-26 11:20:00,35.8,14.4,29.80,NE,45,10.1,10.1,41,0.00,,,0.00,VWS V14.01,2013-02-26 17:20:00,
2013-02-26 11:22:00,36.1,14.7,29.80,ENE,68,4.0,4.0,41,0.00,,,0.00,VWS V14.01,2013-02-26 17:22:00,
2013-02-26 11:23:00,33.6,16.0,29.82,NNE,22,4.0,4.0,48,0.00,,,0.00,VWS V14.01,2013-02-26 17:23:00,
2013-02-26 11:24:00,36.5,15.6,29.80,NE,45,4.0,4.0,42,0.00,,,0.00,VWS V14.01,2013-02-26 17:24:00,
2013-02-26 11:26:00,36.3,14.9,29.82,WNW,292,12.8,12.8,41,0.00,,,0.00,VWS V14.01,2013-02-26 17:26:00,
2013-02-26 11:28:00,34.0,15.9,29.82,NE,45,0.0,1.3,47,0.00,,,0.00,VWS V14.01,2013-02-26 17:28:00,
2013-02-26 11:30:00,36.7,15.2,29.82,NE,45,9.4,9.4,41,0.00,,,0.00,VWS V14.01,2013-02-26 17:30:00,
2013-02-26 11:32:00,36.5,15.1,29.82,NNE,22,3.4,3.4,41,0.00,,,0.00,VWS V14.01,2013-02-26 17:32:00,
2013-02-26 11:33:00,34.0,14.9,29.82,East,90,7.4,7.4,45,0.00,,,0.00,VWS V14.01,2013-02-26 17:33:00,
2013-02-26 11:34:00,36.9,15.4,29.82,NNW,338,3.4,3.4,41,0.00,,,0.00,VWS V14.01,2013-02-26 17:34:00,
2013-02-26 11:36:00,36.7,15.2,29.82,WNW,292,3.4,3.4,41,0.00,,,0.00,VWS V14.01,2013-02-26 17:36:00,
2013-02-26 11:38:00,33.8,14.7,29.82,ENE,68,4.0,4.0,45,0.00,,,0.00,VWS V14.01,2013-02-26 17:38:00,
2013-02-26 11:40:00,37.0,15.5,29.82,NNE,22,4.0,4.0,41,0.00,,,0.00,VWS V14.01,2013-02-26 17:40:00,
2013-02-26 11:42:00,37.0,15.5,29.82,NNW,338,4.7,4.7,41,0.00,,,0.00,VWS V14.01,2013-02-26 17:42:00,
2013-02-26 11:43:00,35.1,15.9,29.82,North,0,0.0,0.0,45,0.00,,,0.00,VWS V14.01,2013-02-26 17:43:00,
2013-02-26 11:44:00,36.9,15.4,29.82,NNE,22,8.1,8.1,41,0.00,,,0.00,VWS V14.01,2013-02-26 17:44:00,
2013-02-26 11:46:00,36.5,15.1,29.82,East,90,6.0,6.0,41,0.00,,,0.00,VWS V14.01,2013-02-26 17:46:00,
2013-02-26 11:48:00,35.4,16.2,29.82,NE,45,0.0,1.3,45,0.00,,,0.00,VWS V14.01,2013-02-26 17:48:00,
2013-02-26 11:50:00,36.3,14.9,29.82,NNE,22,8.1,8.1,41,0.00,,,0.00,VWS V14.01,2013-02-26 17:50:00,
2013-02-26 11:52:00,36.7,15.2,29.82,NW,315,6.0,6.0,41,0.00,,,0.00,VWS V14.01,2013-02-26 17:52:00,
2013-02-26 11:53:00,35.4,15.2,29.82,East,90,4.7,4.7,43,0.00,,,0.00,VWS V14.01,2013-02-26 17:53:00,
2013-02-26 11:54:00,36.7,15.2,29.82,NE,45,9.4,9.4,41,0.00,,,0.00,VWS V14.01,2013-02-26 17:54:00,
2013-02-26 11:56:00,36.1,14.7,29.82,NNW,338,6.0,6.0,41,0.00,,,0.00,VWS V14.01,2013-02-26 17:56:00,
2013-02-26 11:58:00,36.0,15.6,29.82,East,90,4.0,4.0,43,0.00,,,0.00,VWS V14.01,2013-02-26 17:58:00,
2013-02-26 12:00:00,36.5,15.1,29.82,NE,45,4.7,4.7,41,0.00,,,0.00,VWS V14.01,2013-02-26 18:00:00,
2013-02-26 12:02:00,36.3,14.9,29.82,NNE,22,6.0,6.0,41,0.00,,,0.00,VWS V14.01,2013-02-26 18:02:00,
2013-02-26 12:03:00,36.1,15.8,29.79,NE,45,8.1,8.1,43,0.00,,,0.00,VWS V14.01,2013-02-26 18:03:00,
2013-02-26 12:04:00,36.3,14.9,29.82,NNE,22,9.4,9.4,41,0.00,,,0.00,VWS V14.01,2013-02-26 18:04:00,
2013-02-26 12:06:00,36.1,14.7,29.82,NNE,22,9.4,9.4,41,0.00,,,0.00,VWS V14.01,2013-02-26 18:06:00,
2013-02-26 12:08:00,36.0,15.1,29.79,NNE,22,8.7,8.7,42,0.00,,,0.00,VWS V14.01,2013-02-26 18:08:00,
2013-02-26 12:10:00,35.6,13.7,29.82,NE,45,4.7,4.7,40,0.00,,,0.00,VWS V14.01,2013-02-26 18:10:00,
2013-02-26 12:12:00,35.8,14.4,29.82,East,90,6.0,6.0,41,0.00,,,0.00,VWS V14.01,2013-02-26 18:12:00,
2013-02-26 12:13:00,35.8,14.4,29.79,East,90,8.7,8.7,41,0.00,,,0.00,VWS V14.01,2013-02-26 18:13:00,
2013-02-26 12:14:00,35.4,14.1,29.82,NE,45,10.1,10.1,41,0.00,,,0.00,VWS V14.01,2013-02-26 18:14:00,
2013-02-26 12:16:00,35.4,14.1,29.82,ENE,68,8.1,8.1,41,0.00,,,0.00,VWS V14.01,2013-02-26 18:16:00,
2013-02-26 12:18:00,36.3,14.9,29.82,NNW,338,8.1,8.1,41,0.00,,,0.00,VWS V14.01,2013-02-26 18:18:00,
2013-02-26 12:20:00,35.2,13.9,29.82,ENE,68,18.8,18.8,41,0.00,,,0.00,VWS V14.01,2013-02-26 18:20:00,
2013-02-26 12:22:00,35.1,13.8,29.82,NNE,22,8.7,8.7,41,0.00,,,0.00,VWS V14.01,2013-02-26 18:22:00,
2013-02-26 12:23:00,36.5,15.1,29.82,NE,45,4.7,4.7,41,0.00,,,0.00,VWS V14.01,2013-02-26 18:23:00,
2013-02-26 12:24:00,35.2,13.9,29.82,NE,45,3.4,4.0,41,0.00,,,0.00,VWS V14.01,2013-02-26 18:24:00,
2013-02-26 12:26:00,35.8,14.4,29.80,NE,45,8.7,8.7,41,0.00,,,0.00,VWS V14.01,2013-02-26 18:26:00,
2013-02-26 12:28:00,36.7,15.2,29.82,NE,45,4.7,4.7,41,0.00,,,0.00,VWS V14.01,2013-02-26 18:28:00,
2013-02-26 12:30:00,36.0,14.0,29.80,NNE,22,12.8,12.8,40,0.00,,,0.00,VWS V14.01,2013-02-26 18:30:00,
2013-02-26 12:32:00,36.1,14.2,29.80,ENE,68,16.8,16.8,40,0.00,,,0.00,VWS V14.01,2013-02-26 18:32:00,
2013-02-26 12:33:00,37.0,15.5,29.82,NNW,338,7.4,7.4,41,0.00,,,0.00,VWS V14.01,2013-02-26 18:33:00,
2013-02-26 12:34:00,35.6,13.7,29.80,East,90,12.8,12.8,40,0.00,,,0.00,VWS V14.01,2013-02-26 18:34:00,
2013-02-26 12:36:00,36.0,14.0,29.80,NE,45,8.1,8.1,40,0.00,,,0.00,VWS V14.01,2013-02-26 18:36:00,
2013-02-26 12:38:00,36.5,15.1,29.82,ENE,68,8.7,8.7,41,0.00,,,0.00,VWS V14.01,2013-02-26 18:38:00,
2013-02-26 12:40:00,36.0,14.0,29.80,NNE,22,4.0,4.7,40,0.00,,,0.00,VWS V14.01,2013-02-26 18:40:00,
2013-02-26 12:42:00,36.7,14.6,29.80,NNE,22,19.5,19.5,40,0.00,,,0.00,VWS V14.01,2013-02-26 18:42:00,
2013-02-26 12:43:00,36.5,15.1,29.82,NNE,22,6.0,6.0,41,0.00,,,0.00,VWS V14.01,2013-02-26 18:43:00,
2013-02-26 12:44:00,36.7,14.6,29.80,NNW,338,7.4,7.4,40,0.00,,,0.00,VWS V14.01,2013-02-26 18:44:00,
2013-02-26 12:46:00,36.9,14.8,29.80,NNE,22,8.7,8.7,40,0.00,,,0.00,VWS V14.01,2013-02-26 18:46:00,
2013-02-26 12:48:00,36.3,14.9,29.82,NNW,338,10.1,10.1,41,0.00,,,0.00,VWS V14.01,2013-02-26 18:48:00,
2013-02-26 12:50:00,37.0,14.4,29.80,ENE,68,10.1,10.1,39,0.00,,,0.00,VWS V14.01,2013-02-26 18:50:00,
2013-02-26 12:52:00,37.9,15.2,29.80,ENE,68,6.7,6.7,39,0.00,,,0.00,VWS V14.01,2013-02-26 18:52:00,
2013-02-26 12:53:00,36.7,15.2,29.82,East,90,4.0,4.0,41,0.00,,,0.00,VWS V14.01,2013-02-26 18:53:00,
2013-02-26 12:54:00,38.3,15.5,29.80,ENE,68,10.1,10.1,39,0.00,,,0.00,VWS V14.01,2013-02-26 18:54:00,
2013-02-26 12:56:00,38.5,15.7,29.80,NE,45,4.0,6.3,39,0.00,,,0.00,VWS V14.01,2013-02-26 18:56:00,
2013-02-26 12:58:00,36.1,14.7,29.82,NE,45,8.1,8.1,41,0.00,,,0.00,VWS V14.01,2013-02-26 18:58:00,
2013-02-26 13:00:00,38.1,14.8,29.80,NE,45,8.1,8.1,38,0.00,,,0.00,VWS V14.01,2013-02-26 19:00:00,
2013-02-26 13:02:00,38.1,14.8,29.80,NNE,22,9.4,9.4,38,0.00,,,0.00,VWS V14.01,2013-02-26 19:02:00,
2013-02-26 13:03:00,35.6,14.2,29.82,North,0,3.4,3.4,41,0.00,,,0.00,VWS V14.01,2013-02-26 19:03:00,
2013-02-26 13:04:00,37.9,14.6,29.80,NNE,22,18.8,18.8,38,0.00,,,0.00,VWS V14.01,2013-02-26 19:04:00,
2013-02-26 13:06:00,37.9,14.0,29.80,NNE,22,12.1,12.1,37,0.00,,,0.00,VWS V14.01,2013-02-26 19:06:00,
2013-02-26 13:08:00,35.4,14.1,29.82,East,90,10.1,10.1,41,0.00,,,0.00,VWS V14.01,2013-02-26 19:08:00,
2013-02-26 13:10:00,38.8,15.4,29.80,ENE,68,14.8,14.8,38,0.00,,,0.00,VWS V14.01,2013-02-26 19:10:00,
2013-02-26 13:12:00,35.2,13.9,29.82,NE,45,9.4,9.4,41,0.00,,,0.00,VWS V14.01,2013-02-26 19:12:00,
2013-02-26 13:14:00,38.5,13.9,29.80,NNE,22,18.1,18.1,36,0.00,,,0.00,VWS V14.01,2013-02-26 19:14:00,
2013-02-26 13:16:00,38.3,13.7,29.80,ENE,68,10.1,10.1,36,0.00,,,0.00,VWS V14.01,2013-02-26 19:16:00,
2013-02-26 13:17:00,35.6,14.2,29.79,NNE,22,7.4,7.4,41,0.00,,,0.00,VWS V14.01,2013-02-26 19:17:00,
2013-02-26 13:18:00,38.1,13.5,29.80,ENE,68,28.9,28.9,36,0.00,,,0.00,VWS V14.01,2013-02-26 19:18:00,
2013-02-26 13:20:00,37.9,13.4,29.80,NE,45,10.7,10.7,36,0.00,,,0.00,VWS V14.01,2013-02-26 19:20:00,
2013-02-26 13:22:00,36.0,14.0,29.79,SE,135,16.1,16.1,40,0.00,,,0.00,VWS V14.01,2013-02-26 19:22:00,
2013-02-26 13:24:00,37.9,13.4,29.80,NNE,22,9.4,9.4,36,0.00,,,0.00,VWS V14.01,2013-02-26 19:24:00,
2013-02-26 13:26:00,37.9,13.4,29.76,ESE,112,4.0,5.8,36,0.00,,,0.00,VWS V14.01,2013-02-26 19:26:00,
2013-02-26 13:27:00,36.0,14.0,29.79,SE,135,6.0,6.0,40,0.00,,,0.00,VWS V14.01,2013-02-26 19:27:00,
2013-02-26 13:28:00,37.9,13.4,29.76,ENE,68,7.4,7.4,36,0.00,,,0.00,VWS V14.01,2013-02-26 19:28:00,
2013-02-26 13:30:00,38.1,13.5,29.76,NNE,22,7.4,7.4,36,0.00,,,0.00,VWS V14.01,2013-02-26 19:30:00,
2013-02-26 13:32:00,36.0,14.0,29.79,East,90,6.0,6.0,40,0.00,,,0.00,VWS V14.01,2013-02-26 19:32:00,
2013-02-26 13:34:00,38.5,13.9,29.76,NNE,22,4.0,4.3,36,0.00,,,0.00,VWS V14.01,2013-02-26 19:34:00,
2013-02-26 13:36:00,38.5,13.9,29.76,NNE,22,8.7,8.7,36,0.00,,,0.00,VWS V14.01,2013-02-26 19:36:00,
2013-02-26 13:37:00,36.9,14.8,29.79,NE,45,7.4,7.4,40,0.00,,,0.00,VWS V14.01,2013-02-26 19:37:00,
2013-02-26 13:38:00,38.5,13.9,29.76,ENE,68,10.7,10.7,36,0.00,,,0.00,VWS V14.01,2013-02-26 19:38:00,
2013-02-26 13:40:00,38.7,14.0,29.76,East,90,6.7,6.7,36,0.00,,,0.00,VWS V14.01,2013-02-26 19:40:00,
2013-02-26 13:42:00,37.4,14.7,29.79,North,0,10.7,10.7,39,0.00,,,0.00,VWS V14.01,2013-02-26 19:42:00,
2013-02-26 13:44:00,38.5,13.2,29.76,NNE,22,19.5,19.5,35,0.00,,,0.00,VWS V14.01,2013-02-26 19:44:00,
2013-02-26 13:46:00,38.5,13.2,29.76,NE,45,16.1,16.1,35,0.00,,,0.00,VWS V14.01,2013-02-26 19:46:00,
2013-02-26 13:47:00,38.5,15.7,29.79,NNW,338,10.7,10.7,39,0.00,,,0.00,VWS V14.01,2013-02-26 19:47:00,
2013-02-26 13:48:00,38.3,13.1,29.76,ENE,68,16.1,16.1,35,0.00,,,0.00,VWS V14.01,2013-02-26 19:48:00,
2013-02-26 13:50:00,37.9,12.7,29.76,ENE,68,19.5,19.5,35,0.00,,,0.00,VWS V14.01,2013-02-26 19:50:00,
2013-02-26 13:52:00,38.1,14.8,29.79,ENE,68,17.5,17.5,38,0.00,,,0.00,VWS V14.01,2013-02-26 19:52:00,
2013-02-26 13:54:00,38.1,13.5,29.76,ENE,68,14.1,14.1,36,0.00,,,0.00,VWS V14.01,2013-02-26 19:54:00,
2013-02-26 13:56:00,37.9,12.7,29.76,NE,45,18.8,18.8,35,0.00,,,0.00,VWS V14.01,2013-02-26 19:56:00,
2013-02-26 13:57:00,38.1,14.2,29.79,NE,45,14.8,14.8,37,0.00,,,0.00,VWS V14.01,2013-02-26 19:57:00,
2013-02-26 13:58:00,37.8,12.6,29.76,NE,45,11.4,11.4,35,0.00,,,0.00,VWS V14.01,2013-02-26 19:58:00,
2013-02-26 14:00:00,37.9,13.4,29.76,NNE,22,11.4,11.4,36,0.00,,,0.00,VWS V14.01,2013-02-26 20:00:00,
2013-02-26 14:02:00,38.7,14.0,29.79,NE,45,17.5,17.5,36,0.00,,,0.00,VWS V14.01,2013-02-26 20:02:00,
2013-02-26 14:04:00,37.9,13.4,29.76,NNE,22,4.7,4.7,36,0.00,,,0.00,VWS V14.01,2013-02-26 20:04:00,
2013-02-26 14:06:00,37.9,13.4,29.76,NE,45,6.0,6.0,36,0.00,,,0.00,VWS V14.01,2013-02-26 20:06:00,
2013-02-26 14:07:00,38.3,13.7,29.79,NE,45,12.8,12.8,36,0.00,,,0.00,VWS V14.01,2013-02-26 20:07:00,
2013-02-26 14:08:00,37.6,13.1,29.76,NE,45,4.7,5.4,36,0.00,,,0.00,VWS V14.01,2013-02-26 20:08:00,
2013-02-26 14:10:00,37.4,12.9,29.76,ENE,68,8.1,8.1,36,0.00,,,0.00,VWS V14.01,2013-02-26 20:10:00,
2013-02-26 14:12:00,37.9,13.4,29.79,SE,135,12.8,12.8,36,0.00,,,0.00,VWS V14.01,2013-02-26 20:12:00,
2013-02-26 14:14:00,37.0,12.6,29.74,ENE,68,8.7,8.7,36,0.00,,,0.00,VWS V14.01,2013-02-26 20:14:00,
2013-02-26 14:16:00,37.4,12.9,29.74,NE,45,11.4,11.4,36,0.00,,,0.00,VWS V14.01,2013-02-26 20:16:00,
2013-02-26 14:17:00,37.9,13.4,29.76,NNE,22,17.5,17.5,36,0.00,,,0.00,VWS V14.01,2013-02-26 20:17:00,
2013-02-26 14:18:00,37.2,12.7,29.74,NNE,22,6.0,6.0,36,0.00,,,0.00,VWS V14.01,2013-02-26 20:18:00,
2013-02-26 14:20:00,37.6,13.1,29.74,NNE,22,10.7,10.7,36,0.00,,,0.00,VWS V14.01,2013-02-26 20:20:00,
2013-02-26 14:22:00,38.3,13.7,29.76,NNE,22,8.7,8.7,36,0.00,,,0.00,VWS V14.01,2013-02-26 20:22:00,
2013-02-26 14:24:00,37.8,13.2,29.74,NE,45,10.1,10.1,36,0.00,,,0.00,VWS V14.01,2013-02-26 20:24:00,
2013-02-26 14:26:00,37.9,13.4,29.76,NNE,22,4.7,4.7,36,0.00,,,0.00,VWS V14.01,2013-02-26 20:26:00,
2013-02-26 14:27:00,38.1,13.5,29.76,North,0,11.4,11.4,36,0.00,,,0.00,VWS V14.01,2013-02-26 20:27:00,
2013-02-26 14:28:00,37.6,13.1,29.76,NNE,22,10.1,10.1,36,0.00,,,0.00,VWS V14.01,2013-02-26 20:28:00,
2013-02-26 14:30:00,37.2,12.7,29.76,NNW,338,8.7,8.7,36,0.00,,,0.00,VWS V14.01,2013-02-26 20:30:00,
2013-02-26 14:32:00,39.0,14.3,29.76,NE,45,3.4,4.9,36,0.00,,,0.00,VWS V14.01,2013-02-26 20:32:00,
2013-02-26 14:34:00,37.6,13.1,29.76,NNE,22,11.4,11.4,36,0.00,,,0.00,VWS V14.01,2013-02-26 20:34:00,
2013-02-26 14:36:00,37.8,13.2,29.76,NNE,22,4.7,5.8,36,0.00,,,0.00,VWS V14.01,2013-02-26 20:36:00,
2013-02-26 14:37:00,38.5,13.2,29.76,NE,45,10.7,10.7,35,0.00,,,0.00,VWS V14.01,2013-02-26 20:37:00,
2013-02-26 14:38:00,37.6,13.1,29.76,NE,45,9.4,9.4,36,0.00,,,0.00,VWS V14.01,2013-02-26 20:38:00,
2013-02-26 14:40:00,38.1,13.5,29.76,NNE,22,8.7,8.7,36,0.00,,,0.00,VWS V14.01,2013-02-26 20:40:00,
2013-02-26 14:42:00,37.9,12.7,29.76,NE,45,12.1,12.1,35,0.00,,,0.00,VWS V14.01,2013-02-26 20:42:00,
2013-02-26 14:44:00,38.3,13.7,29.76,ENE,68,6.0,6.0,36,0.00,,,0.00,VWS V14.01,2013-02-26 20:44:00,
2013-02-26 14:46:00,37.9,13.4,29.76,NE,45,7.4,7.4,36,0.00,,,0.00,VWS V14.01,2013-02-26 20:46:00,
2013-02-26 14:47:00,37.9,12.7,29.76,North,0,16.8,16.8,35,0.00,,,0.00,VWS V14.01,2013-02-26 20:47:00,
2013-02-26 14:48:00,37.9,13.4,29.76,NNE,22,7.4,7.4,36,0.00,,,0.00,VWS V14.01,2013-02-26 20:48:00,
2013-02-26 14:50:00,38.3,13.7,29.76,NE,45,4.7,4.7,36,0.00,,,0.00,VWS V14.01,2013-02-26 20:50:00,
2013-02-26 14:52:00,37.9,13.4,29.76,NE,45,8.7,8.7,36,0.00,,,0.00,VWS V14.01,2013-02-26 20:52:00,
2013-02-26 14:54:00,38.5,13.9,29.76,North,0,7.4,7.4,36,0.00,,,0.00,VWS V14.01,2013-02-26 20:54:00,
2013-02-26 14:56:00,38.3,13.7,29.76,ENE,68,16.1,16.1,36,0.00,,,0.00,VWS V14.01,2013-02-26 20:56:00,
2013-02-26 14:57:00,38.1,13.5,29.76,SE,135,7.4,7.4,36,0.00,,,0.00,VWS V14.01,2013-02-26 20:57:00,
2013-02-26 14:58:00,38.3,13.7,29.76,North,0,8.7,8.7,36,0.00,,,0.00,VWS V14.01,2013-02-26 20:58:00,
2013-02-26 15:00:00,38.1,12.9,29.76,North,0,18.8,18.8,35,0.00,,,0.00,VWS V14.01,2013-02-26 21:00:00,
2013-02-26 15:02:00,37.4,12.9,29.74,NW,315,7.4,7.4,36,0.00,,,0.00,VWS V14.01,2013-02-26 21:02:00,
2013-02-26 15:04:00,38.3,13.1,29.76,North,0,6.0,6.0,35,0.00,,,0.00,VWS V14.01,2013-02-26 21:04:00,
2013-02-26 15:06:00,38.5,13.2,29.76,NNW,338,12.8,12.8,35,0.00,,,0.00,VWS V14.01,2013-02-26 21:06:00,
2013-02-26 15:07:00,37.4,12.9,29.74,NE,45,7.4,7.4,36,0.00,,,0.00,VWS V14.01,2013-02-26 21:07:00,
2013-02-26 15:08:00,37.9,12.7,29.76,North,0,12.1,12.1,35,0.00,,,0.00,VWS V14.01,2013-02-26 21:08:00,
2013-02-26 15:10:00,37.8,12.6,29.76,North,0,9.4,9.4,35,0.00,,,0.00,VWS V14.01,2013-02-26 21:10:00,
2013-02-26 15:12:00,37.6,13.1,29.74,NE,45,10.1,10.1,36,0.00,,,0.00,VWS V14.01,2013-02-26 21:12:00,
2013-02-26 15:14:00,37.4,12.9,29.76,NNE,22,9.4,9.4,36,0.00,,,0.00,VWS V14.01,2013-02-26 21:14:00,
2013-02-26 15:16:00,37.4,12.9,29.76,ENE,68,6.0,6.0,36,0.00,,,0.00,VWS V14.01,2013-02-26 21:16:00,
2013-02-26 15:17:00,37.9,13.4,29.76,NNW,338,10.1,10.1,36,0.00,,,0.00,VWS V14.01,2013-02-26 21:17:00,
2013-02-26 15:18:00,37.0,12.6,29.76,North,0,12.1,12.1,36,0.00,,,0.00,VWS V14.01,2013-02-26 21:18:00,
2013-02-26 15:20:00,37.0,12.6,29.76,NNE,22,4.7,4.7,36,0.00,,,0.00,VWS V14.01,2013-02-26 21:20:00,
2013-02-26 15:22:00,37.2,12.7,29.76,NNE,22,6.7,6.7,36,0.00,,,0.00,VWS V14.01,2013-02-26 21:22:00,
2013-02-26 15:24:00,37.0,12.6,29.76,North,0,6.0,6.0,36,0.00,,,0.00,VWS V14.01,2013-02-26 21:24:00,
2013-02-26 15:26:00,37.0,12.6,29.76,NNW,338,6.0,6.0,36,0.00,,,0.00,VWS V14.01,2013-02-26 21:26:00,
2013-02-26 15:27:00,37.6,13.1,29.76,ENE,68,7.4,7.4,36,0.00,,,0.00,VWS V14.01,2013-02-26 21:27:00,
2013-02-26 15:28:00,37.6,13.1,29.76,North,0,6.0,6.0,36,0.00,,,0.00,VWS V14.01,2013-02-26 21:28:00,
2013-02-26 15:30:00,37.6,13.1,29.76,North,0,10.7,10.7,36,0.00,,,0.00,VWS V14.01,2013-02-26 21:30:00,
2013-02-26 15:32:00,38.1,13.5,29.76,NNE,22,7.4,7.4,36,0.00,,,0.00,VWS V14.01,2013-02-26 21:32:00,
2013-02-26 15:34:00,38.5,13.9,29.76,NW,315,10.1,10.1,36,0.00,,,0.00,VWS V14.01,2013-02-26 21:34:00,
2013-02-26 15:36:00,38.3,13.7,29.76,North,0,11.4,11.4,36,0.00,,,0.00,VWS V14.01,2013-02-26 21:36:00,
2013-02-26 15:37:00,37.9,13.4,29.76,ENE,68,6.0,6.0,36,0.00,,,0.00,VWS V14.01,2013-02-26 21:37:00,
2013-02-26 15:38:00,38.8,14.2,29.76,NNE,22,6.0,6.0,36,0.00,,,0.00,VWS V14.01,2013-02-26 21:38:00,
2013-02-26 15:40:00,38.7,13.4,29.76,NNW,338,11.4,11.4,35,0.00,,,0.00,VWS V14.01,2013-02-26 21:40:00,
2013-02-26 15:42:00,38.3,13.7,29.76,NNE,22,10.7,10.7,36,0.00,,,0.00,VWS V14.01,2013-02-26 21:42:00,
2013-02-26 15:44:00,38.8,13.5,29.76,NNE,22,8.7,8.7,35,0.00,,,0.00,VWS V14.01,2013-02-26 21:44:00,
2013-02-26 15:46:00,38.7,13.4,29.76,North,0,6.0,6.0,35,0.00,,,0.00,VWS V14.01,2013-02-26 21:46:00,
2013-02-26 15:47:00,38.3,13.7,29.76,East,90,12.8,12.8,36,0.00,,,0.00,VWS V14.01,2013-02-26 21:47:00,
2013-02-26 15:48:00,38.8,13.5,29.76,North,0,8.7,8.7,35,0.00,,,0.00,VWS V14.01,2013-02-26 21:48:00,
2013-02-26 15:50:00,39.2,13.9,29.76,NNW,338,6.0,6.0,35,0.00,,,0.00,VWS V14.01,2013-02-26 21:50:00,
2013-02-26 15:52:00,37.9,12.7,29.76,NNW,338,16.1,16.1,35,0.00,,,0.00,VWS V14.01,2013-02-26 21:52:00,
2013-02-26 15:54:00,39.2,13.9,29.76,North,0,8.1,8.1,35,0.00,,,0.00,VWS V14.01,2013-02-26 21:54:00,
2013-02-26 15:56:00,39.4,14.0,29.76,NNE,22,9.4,9.4,35,0.00,,,0.00,VWS V14.01,2013-02-26 21:56:00,
2013-02-26 15:57:00,38.7,14.0,29.76,NW,315,7.4,7.4,36,0.00,,,0.00,VWS V14.01,2013-02-26 21:57:00,
2013-02-26 15:58:00,38.8,13.5,29.76,WNW,292,8.1,8.1,35,0.00,,,0.00,VWS V14.01,2013-02-26 21:58:00,
2013-02-26 16:00:00,38.5,13.2,29.76,NW,315,6.7,6.7,35,0.00,,,0.00,VWS V14.01,2013-02-26 22:00:00,
2013-02-26 16:02:00,37.8,12.6,29.76,NNE,22,7.4,7.4,35,0.00,,,0.00,VWS V14.01,2013-02-26 22:02:00,
2013-02-26 16:04:00,38.7,13.4,29.76,NNE,22,4.0,4.0,35,0.00,,,0.00,VWS V14.01,2013-02-26 22:04:00,
2013-02-26 16:06:00,38.8,13.5,29.76,NNE,22,3.4,3.4,35,0.00,,,0.00,VWS V14.01,2013-02-26 22:06:00,
2013-02-26 16:07:00,37.4,12.9,29.76,NW,315,10.1,10.1,36,0.00,,,0.00,VWS V14.01,2013-02-26 22:07:00,
2013-02-26 16:08:00,38.1,12.9,29.76,NNW,338,6.0,6.0,35,0.00,,,0.00,VWS V14.01,2013-02-26 22:08:00,
2013-02-26 16:10:00,37.2,12.1,29.76,NNW,338,6.7,6.7,35,0.00,,,0.00,VWS V14.01,2013-02-26 22:10:00,
2013-02-26 16:12:00,37.4,12.9,29.76,West,270,10.7,10.7,36,0.00,,,0.00,VWS V14.01,2013-02-26 22:12:00,
2013-02-26 16:14:00,35.6,11.3,29.76,NNW,338,3.4,3.4,36,0.00,,,0.00,VWS V14.01,2013-02-26 22:14:00,
2013-02-26 16:16:00,35.2,11.0,29.76,NNW,338,3.4,3.4,36,0.00,,,0.00,VWS V14.01,2013-02-26 22:16:00,
2013-02-26 16:17:00,37.0,12.6,29.76,NW,315,9.4,9.4,36,0.00,,,0.00,VWS V14.01,2013-02-26 22:17:00,
2013-02-26 16:18:00,34.9,11.3,29.76,NNE,22,0.0,2.2,37,0.00,,,0.00,VWS V14.01,2013-02-26 22:18:00,
2013-02-26 16:20:00,34.5,10.9,29.76,NW,315,0.0,2.2,37,0.00,,,0.00,VWS V14.01,2013-02-26 22:20:00,
2013-02-26 16:22:00,37.6,13.1,29.76,NNW,338,8.1,8.1,36,0.00,,,0.00,VWS V14.01,2013-02-26 22:22:00,
2013-02-26 16:24:00,33.6,10.7,29.76,NNW,338,0.0,2.0,38,0.00,,,0.00,VWS V14.01,2013-02-26 22:24:00,
2013-02-26 16:26:00,33.4,10.6,29.76,NNW,338,2.7,2.7,38,0.00,,,0.00,VWS V14.01,2013-02-26 22:26:00,
2013-02-26 16:27:00,38.5,13.9,29.76,North,0,7.4,7.4,36,0.00,,,0.00,VWS V14.01,2013-02-26 22:27:00,
2013-02-26 16:28:00,33.1,10.8,29.76,NNW,338,0.0,1.3,39,0.00,,,0.00,VWS V14.01,2013-02-26 22:28:00,
2013-02-26 16:30:00,32.9,10.7,29.76,NNW,338,3.4,3.4,39,0.00,,,0.00,VWS V14.01,2013-02-26 22:30:00,
2013-02-26 16:32:00,38.8,13.5,29.76,NNW,338,11.4,11.4,35,0.00,,,0.00,VWS V14.01,2013-02-26 22:32:00,
2013-02-26 16:34:00,32.4,10.8,29.76,NW,315,0.0,1.3,40,0.00,,,0.00,VWS V14.01,2013-02-26 22:34:00,
2013-02-26 16:36:00,32.2,10.6,29.76,North,0,4.7,4.7,40,0.00,,,0.00,VWS V14.01,2013-02-26 22:36:00,
2013-02-26 16:37:00,38.7,13.4,29.76,NNE,22,9.4,9.4,35,0.00,,,0.00,VWS V14.01,2013-02-26 22:37:00,
2013-02-26 16:38:00,32.0,10.4,29.76,NNW,338,4.0,4.0,40,0.00,,,0.00,VWS V14.01,2013-02-26 22:38:00,
2013-02-26 16:40:00,31.8,10.3,29.76,NNE,22,4.0,4.0,40,0.00,,,0.00,VWS V14.01,2013-02-26 22:40:00,
2013-02-26 16:42:00,39.2,13.9,29.76,NNW,338,4.0,4.0,35,0.00,,,0.00,VWS V14.01,2013-02-26 22:42:00,
2013-02-26 16:44:00,32.0,11.0,29.76,NNW,338,4.0,4.7,41,0.00,,,0.00,VWS V14.01,2013-02-26 22:44:00,
2013-02-26 16:46:00,31.8,10.8,29.76,North,0,7.4,7.4,41,0.00,,,0.00,VWS V14.01,2013-02-26 22:46:00,
2013-02-26 16:47:00,39.4,14.0,29.76,NNW,338,10.1,10.1,35,0.00,,,0.00,VWS V14.01,2013-02-26 22:47:00,
2013-02-26 16:48:00,31.8,10.8,29.76,NNE,22,4.7,4.7,41,0.00,,,0.00,VWS V14.01,2013-02-26 22:48:00,
2013-02-26 16:50:00,31.6,10.6,29.76,North,0,4.7,4.7,41,0.00,,,0.00,VWS V14.01,2013-02-26 22:50:00,
2013-02-26 16:52:00,38.5,13.2,29.76,NNW,338,4.7,4.7,35,0.00,,,0.00,VWS V14.01,2013-02-26 22:52:00,
2013-02-26 16:54:00,31.6,11.2,29.76,NNW,338,6.0,6.0,42,0.00,,,0.00,VWS V14.01,2013-02-26 22:54:00,
2013-02-26 16:56:00,31.5,11.0,29.76,North,0,6.0,6.0,42,0.00,,,0.00,VWS V14.01,2013-02-26 22:56:00,
2013-02-26 16:57:00,39.2,13.9,29.76,NNE,22,0.0,1.6,35,0.00,,,0.00,VWS V14.01,2013-02-26 22:57:00,
2013-02-26 16:58:00,31.1,10.7,29.76,NNW,338,3.4,3.4,42,0.00,,,0.00,VWS V14.01,2013-02-26 22:58:00,
2013-02-26 17:00:00,31.1,10.7,29.76,NNW,338,4.7,4.7,42,0.00,,,0.00,VWS V14.01,2013-02-26 23:00:00,
2013-02-26 17:02:00,36.9,11.8,29.76,NNW,338,6.7,6.7,35,0.00,,,0.00,VWS V14.01,2013-02-26 23:02:00,
2013-02-26 17:04:00,30.9,10.5,29.76,WNW,292,6.7,6.7,42,0.00,,,0.00,VWS V14.01,2013-02-26 23:04:00,
2013-02-26 17:06:00,30.7,10.4,29.76,NNW,338,0.0,2.0,42,0.00,,,0.00,VWS V14.01,2013-02-26 23:06:00,
2013-02-26 17:07:00,35.4,11.1,29.76,NNE,22,4.7,4.7,36,0.00,,,0.00,VWS V14.01,2013-02-26 23:07:00,
2013-02-26 17:08:00,30.4,10.1,29.76,NNW,338,2.7,2.9,42,0.00,,,0.00,VWS V14.01,2013-02-26 23:08:00,
2013-02-26 17:10:00,30.2,9.9,29.76,NNW,338,4.0,4.0,42,0.00,,,0.00,VWS V14.01,2013-02-26 23:10:00,
2013-02-26 17:12:00,34.3,10.8,29.76,NW,315,6.0,6.0,37,0.00,,,0.00,VWS V14.01,2013-02-26 23:12:00,
2013-02-26 17:14:00,29.7,9.9,29.76,NNW,338,0.0,0.0,43,0.00,,,0.00,VWS V14.01,2013-02-26 23:14:00,
2013-02-26 17:16:00,29.3,9.6,29.76,NNW,338,0.0,0.0,43,0.00,,,0.00,VWS V14.01,2013-02-26 23:16:00,
2013-02-26 17:17:00,33.4,10.6,29.76,NNW,338,3.4,3.4,38,0.00,,,0.00,VWS V14.01,2013-02-26 23:17:00,
2013-02-26 17:18:00,29.3,9.6,29.76,NNW,338,4.7,4.7,43,0.00,,,0.00,VWS V14.01,2013-02-26 23:18:00,
2013-02-26 17:20:00,29.1,9.4,29.76,NNW,338,3.4,3.4,43,0.00,,,0.00,VWS V14.01,2013-02-26 23:20:00,
2013-02-26 17:22:00,32.9,10.7,29.76,NNW,338,4.7,4.7,39,0.00,,,0.00,VWS V14.01,2013-02-26 23:22:00,
2013-02-26 17:24:00,28.9,9.3,29.76,NNW,338,4.0,4.0,43,0.00,,,0.00,VWS V14.01,2013-02-26 23:24:00,
2013-02-26 17:26:00,28.8,9.1,29.76,NNW,338,2.7,2.7,43,0.00,,,0.00,VWS V14.01,2013-02-26 23:26:00,
2013-02-26 17:27:00,32.2,10.6,29.76,North,0,4.0,4.0,40,0.00,,,0.00,VWS V14.01,2013-02-26 23:27:00,
2013-02-26 17:28:00,28.6,8.9,29.76,NNW,338,0.0,1.6,43,0.00,,,0.00,VWS V14.01,2013-02-26 23:28:00,
2013-02-26 17:30:00,28.4,9.3,29.76,NNW,338,0.0,1.1,44,0.00,,,0.00,VWS V14.01,2013-02-26 23:30:00,
2013-02-26 17:32:00,31.8,10.3,29.76,NNW,338,0.0,1.6,40,0.00,,,0.00,VWS V14.01,2013-02-26 23:32:00,
2013-02-26 17:34:00,27.9,8.8,29.76,NNW,338,0.0,0.0,44,0.00,,,0.00,VWS V14.01,2013-02-26 23:34:00,
2013-02-26 17:36:00,27.9,8.8,29.76,NNW,338,3.4,3.4,44,0.00,,,0.00,VWS V14.01,2013-02-26 23:36:00,
2013-02-26 17:37:00,31.8,10.8,29.76,NW,315,6.0,6.0,41,0.00,,,0.00,VWS V14.01,2013-02-26 23:37:00,
2013-02-26 17:38:00,27.7,8.6,29.76,NNW,338,0.0,0.9,44,0.00,,,0.00,VWS V14.01,2013-02-26 23:38:00,
2013-02-26 17:40:00,27.5,8.5,29.76,NNW,338,3.4,3.4,44,0.00,,,0.00,VWS V14.01,2013-02-26 23:40:00,
2013-02-26 17:42:00,31.6,10.6,29.76,West,270,4.7,4.7,41,0.00,,,0.00,VWS V14.01,2013-02-26 23:42:00,
2013-02-26 17:44:00,27.3,8.8,29.76,NNW,338,3.4,3.4,45,0.00,,,0.00,VWS V14.01,2013-02-26 23:44:00,
2013-02-26 17:46:00,27.3,8.8,29.76,NNW,338,0.0,0.0,45,0.00,,,0.00,VWS V14.01,2013-02-26 23:46:00,
2013-02-26 17:47:00,31.5,11.0,29.76,NNW,338,3.4,3.4,42,0.00,,,0.00,VWS V14.01,2013-02-26 23:47:00,
2013-02-26 17:48:00,27.1,8.6,29.76,NNW,338,0.0,0.0,45,0.00,,,0.00,VWS V14.01,2013-02-26 23:48:00,
2013-02-26 17:50:00,27.0,8.5,29.76,NE,45,0.0,0.0,45,0.00,,,0.00,VWS V14.01,2013-02-26 23:50:00,
2013-02-26 17:52:00,31.1,10.7,29.76,NNW,338,2.7,3.6,42,0.00,,,0.00,VWS V14.01,2013-02-26 23:52:00,
2013-02-26 17:54:00,27.1,9.1,29.76,North,0,0.0,0.9,46,0.00,,,0.00,VWS V14.01,2013-02-26 23:54:00,
2013-02-26 17:56:00,27.1,9.1,29.76,North,0,0.0,1.3,46,0.00,,,0.00,VWS V14.01,2013-02-26 23:56:00,
2013-02-26 17:57:00,30.7,10.4,29.76,NNW,338,6.0,6.0,42,0.00,,,0.00,VWS V14.01,2013-02-26 23:57:00,
2013-02-26 17:58:00,27.3,9.3,29.76,North,0,2.7,2.7,46,0.00,,,0.00,VWS V14.01,2013-02-26 23:58:00,
2013-02-26 18:00:00,27.3,9.3,29.76,NNE,22,2.7,2.7,46,0.00,,,0.00,VWS V14.01,2013-02-27 00:00:00,
2013-02-26 18:02:00,30.2,9.9,29.76,NNW,338,3.4,3.4,42,0.00,,,0.00,VWS V14.01,2013-02-27 00:02:00,
2013-02-26 18:04:00,27.1,9.1,29.76,NNE,22,0.0,0.0,46,0.00,,,0.00,VWS V14.01,2013-02-27 00:04:00,
2013-02-26 18:06:00,27.1,9.1,29.76,North,0,0.0,1.3,46,0.00,,,0.00,VWS V14.01,2013-02-27 00:06:00,
2013-02-26 18:07:00,29.5,9.8,29.76,NNW,338,0.0,1.3,43,0.00,,,0.00,VWS V14.01,2013-02-27 00:07:00,
2013-02-26 18:08:00,27.1,9.1,29.76,NNW,338,4.0,4.0,46,0.00,,,0.00,VWS V14.01,2013-02-27 00:08:00,
2013-02-26 18:10:00,27.1,9.1,29.76,NNW,338,4.0,4.0,46,0.00,,,0.00,VWS V14.01,2013-02-27 00:10:00,
2013-02-26 18:12:00,29.1,9.4,29.76,NNW,338,4.0,4.0,43,0.00,,,0.00,VWS V14.01,2013-02-27 00:12:00,
2013-02-26 18:14:00,27.1,9.1,29.74,NNE,22,3.4,3.4,46,0.00,,,0.00,VWS V14.01,2013-02-27 00:14:00,
2013-02-26 18:16:00,27.1,9.6,29.74,NNW,338,3.4,3.4,47,0.00,,,0.00,VWS V14.01,2013-02-27 00:16:00,
2013-02-26 18:17:00,28.9,9.3,29.76,NNW,338,0.0,1.3,43,0.00,,,0.00,VWS V14.01,2013-02-27 00:17:00,
2013-02-26 18:18:00,27.1,9.6,29.74,NW,315,2.7,2.7,47,0.00,,,0.00,VWS V14.01,2013-02-27 00:18:00,
2013-02-26 18:20:00,27.3,9.8,29.74,NNW,338,3.4,3.4,47,0.00,,,0.00,VWS V14.01,2013-02-27 00:20:00,
2013-02-26 18:22:00,28.4,9.3,29.76,NNW,338,0.0,1.1,44,0.00,,,0.00,VWS V14.01,2013-02-27 00:22:00,
2013-02-26 18:24:00,27.5,10.4,29.74,NNE,22,0.0,1.6,48,0.00,,,0.00,VWS V14.01,2013-02-27 00:24:00,
2013-02-26 18:26:00,27.5,9.9,29.76,NNW,338,0.0,1.1,47,0.00,,,0.00,VWS V14.01,2013-02-27 00:26:00,
2013-02-26 18:27:00,27.9,8.8,29.76,NNW,338,0.0,0.0,44,0.00,,,0.00,VWS V14.01,2013-02-27 00:27:00,
2013-02-26 18:28:00,27.5,10.4,29.76,NW,315,3.4,3.4,48,0.00,,,0.00,VWS V14.01,2013-02-27 00:28:00,
2013-02-26 18:30:00,27.5,10.4,29.76,North,0,0.0,2.0,48,0.00,,,0.00,VWS V14.01,2013-02-27 00:30:00,
2013-02-26 18:32:00,27.5,8.5,29.76,NNW,338,3.4,3.4,44,0.00,,,0.00,VWS V14.01,2013-02-27 00:32:00,
2013-02-26 18:34:00,27.5,10.4,29.76,NNW,338,2.7,2.7,48,0.00,,,0.00,VWS V14.01,2013-02-27 00:34:00,
2013-02-26 18:36:00,27.7,10.6,29.76,NW,315,4.7,4.7,48,0.00,,,0.00,VWS V14.01,2013-02-27 00:36:00,
2013-02-26 18:37:00,27.3,8.8,29.76,NNW,338,0.0,1.1,45,0.00,,,0.00,VWS V14.01,2013-02-27 00:37:00,
2013-02-26 18:38:00,27.9,10.7,29.76,NNW,338,8.1,8.1,48,0.00,,,0.00,VWS V14.01,2013-02-27 00:38:00,
2013-02-26 18:40:00,27.7,10.6,29.76,NW,315,0.0,0.9,48,0.00,,,0.00,VWS V14.01,2013-02-27 00:40:00,
2013-02-26 18:42:00,27.0,8.5,29.76,NNW,338,0.0,0.0,45,0.00,,,0.00,VWS V14.01,2013-02-27 00:42:00,
2013-02-26 18:44:00,27.5,10.4,29.74,NNW,338,4.7,4.7,48,0.00,,,0.00,VWS V14.01,2013-02-27 00:44:00,
2013-02-26 18:46:00,27.5,10.4,29.74,NW,315,4.7,4.7,48,0.00,,,0.00,VWS V14.01,2013-02-27 00:46:00,
2013-02-26 18:47:00,27.1,9.1,29.76,NNE,22,2.7,2.7,46,0.00,,,0.00,VWS V14.01,2013-02-27 00:47:00,
2013-02-26 18:48:00,27.5,10.4,29.74,NNE,22,0.0,2.2,48,0.00,,,0.00,VWS V14.01,2013-02-27 00:48:00,
2013-02-26 18:50:00,27.3,10.2,29.74,North,0,0.0,1.3,48,0.00,,,0.00,VWS V14.01,2013-02-27 00:50:00,
2013-02-26 18:52:00,27.3,9.3,29.76,NNE,22,2.7,2.7,46,0.00,,,0.00,VWS V14.01,2013-02-27 00:52:00,
2013-02-26 18:54:00,27.0,9.9,29.74,NNW,338,4.7,4.7,48,0.00,,,0.00,VWS V14.01,2013-02-27 00:54:00,
2013-02-26 18:56:00,27.0,9.9,29.76,North,0,0.0,1.6,48,0.00,,,0.00,VWS V14.01,2013-02-27 00:56:00,
2013-02-26 18:57:00,27.1,9.1,29.76,North,0,0.0,1.3,46,0.00,,,0.00,VWS V14.01,2013-02-27 00:57:00,
2013-02-26 18:58:00,27.0,9.9,29.76,North,0,4.0,4.0,48,0.00,,,0.00,VWS V14.01,2013-02-27 00:58:00,
2013-02-26 19:00:00,27.0,9.9,29.76,NNW,338,4.7,4.7,48,0.00,,,0.00,VWS V14.01,2013-02-27 01:00:00,
2013-02-26 19:02:00,27.1,9.1,29.76,NNW,338,4.0,4.0,46,0.00,,,0.00,VWS V14.01,2013-02-27 01:02:00,
2013-02-26 19:04:00,27.0,10.4,29.76,NNW,338,0.0,1.1,49,0.00,,,0.00,VWS V14.01,2013-02-27 01:04:00,
2013-02-26 19:06:00,27.0,10.4,29.76,NNW,338,0.0,0.0,49,0.00,,,0.00,VWS V14.01,2013-02-27 01:06:00,
2013-02-26 19:07:00,27.1,9.1,29.74,NNW,338,8.1,8.1,46,0.00,,,0.00,VWS V14.01,2013-02-27 01:07:00,
2013-02-26 19:08:00,27.1,10.5,29.76,NNW,338,4.7,4.7,49,0.00,,,0.00,VWS V14.01,2013-02-27 01:08:00,
2013-02-26 19:10:00,27.1,10.5,29.76,NNW,338,6.0,6.0,49,0.00,,,0.00,VWS V14.01,2013-02-27 01:10:00,
2013-02-26 19:12:00,27.3,9.8,29.74,NNW,338,3.4,3.4,47,0.00,,,0.00,VWS V14.01,2013-02-27 01:12:00,
2013-02-26 19:14:00,27.1,10.5,29.76,North,0,0.0,2.7,49,0.00,,,0.00,VWS V14.01,2013-02-27 01:14:00,
2013-02-26 19:16:00,27.1,10.5,29.76,NNW,338,2.7,2.7,49,0.00,,,0.00,VWS V14.01,2013-02-27 01:16:00,
2013-02-26 19:17:00,27.5,9.9,29.74,NNE,22,3.4,3.4,47,0.00,,,0.00,VWS V14.01,2013-02-27 01:17:00,
2013-02-26 19:18:00,27.0,10.4,29.76,NNW,338,2.7,2.7,49,0.00,,,0.00,VWS V14.01,2013-02-27 01:18:00,
2013-02-26 19:20:00,27.0,10.4,29.76,NNW,338,6.0,6.0,49,0.00,,,0.00,VWS V14.01,2013-02-27 01:20:00,
2013-02-26 19:22:00,27.5,10.4,29.76,North,0,0.0,2.0,48,0.00,,,0.00,VWS V14.01,2013-02-27 01:22:00,
2013-02-26 19:24:00,27.1,10.5,29.76,North,0,4.0,4.0,49,0.00,,,0.00,VWS V14.01,2013-02-27 01:24:00,
2013-02-26 19:26:00,27.1,10.5,29.76,NNE,22,0.0,2.2,49,0.00,,,0.00,VWS V14.01,2013-02-27 01:26:00,
2013-02-26 19:27:00,27.5,10.4,29.76,NNW,338,3.4,3.4,48,0.00,,,0.00,VWS V14.01,2013-02-27 01:27:00,
2013-02-26 19:28:00,27.1,10.5,29.76,NE,45,0.0,0.0,49,0.00,,,0.00,VWS V14.01,2013-02-27 01:28:00,
2013-02-26 19:30:00,27.0,10.4,29.76,NE,45,0.0,2.0,49,0.00,,,0.00,VWS V14.01,2013-02-27 01:30:00,
2013-02-26 19:32:00,27.7,10.6,29.76,NW,315,0.0,0.9,48,0.00,,,0.00,VWS V14.01,2013-02-27 01:32:00,
2013-02-26 19:34:00,27.1,10.5,29.76,NNE,22,2.7,2.7,49,0.00,,,0.00,VWS V14.01,2013-02-27 01:34:00,
2013-02-26 19:36:00,27.1,10.5,29.76,NNW,338,4.7,4.7,49,0.00,,,0.00,VWS V14.01,2013-02-27 01:36:00,
2013-02-26 19:37:00,27.5,10.4,29.74,NNW,338,6.0,6.0,48,0.00,,,0.00,VWS V14.01,2013-02-27 01:37:00,
2013-02-26 19:38:00,27.1,10.5,29.76,North,0,0.0,1.1,49,0.00,,,0.00,VWS V14.01,2013-02-27 01:38:00,
2013-02-26 19:40:00,27.0,10.4,29.76,North,0,2.7,2.7,49,0.00,,,0.00,VWS V14.01,2013-02-27 01:40:00,
2013-02-26 19:42:00,27.3,10.2,29.74,North,0,0.0,1.3,48,0.00,,,0.00,VWS V14.01,2013-02-27 01:42:00,
2013-02-26 19:44:00,27.0,10.4,29.76,NNE,22,0.0,3.4,49,0.00,,,0.00,VWS V14.01,2013-02-27 01:44:00,
2013-02-26 19:46:00,27.0,10.4,29.76,NNW,338,4.0,4.0,49,0.00,,,0.00,VWS V14.01,2013-02-27 01:46:00,
2013-02-26 19:47:00,27.0,9.9,29.74,NNE,22,4.7,4.7,48,0.00,,,0.00,VWS V14.01,2013-02-27 01:47:00,
2013-02-26 19:48:00,27.0,10.4,29.76,NNW,338,0.0,1.1,49,0.00,,,0.00,VWS V14.01,2013-02-27 01:48:00,
2013-02-26 19:50:00,26.8,10.2,29.76,NNW,338,0.0,0.0,49,0.00,,,0.00,VWS V14.01,2013-02-27 01:50:00,
2013-02-26 19:52:00,27.0,9.9,29.76,NNW,338,4.7,4.7,48,0.00,,,0.00,VWS V14.01,2013-02-27 01:52:00,
2013-02-26 19:54:00,26.6,10.0,29.76,North,0,4.7,4.7,49,0.00,,,0.00,VWS V14.01,2013-02-27 01:54:00,
2013-02-26 19:56:00,26.6,10.0,29.74,NNW,338,0.0,1.6,49,0.00,,,0.00,VWS V14.01,2013-02-27 01:56:00,
2013-02-26 19:57:00,27.0,10.4,29.76,NNW,338,0.0,1.1,49,0.00,,,0.00,VWS V14.01,2013-02-27 01:57:00,
2013-02-26 19:58:00,26.6,10.0,29.74,NE,45,0.0,2.9,49,0.00,,,0.00,VWS V14.01,2013-02-27 01:58:00,
2013-02-26 20:00:00,26.6,10.0,29.74,North,0,2.7,2.7,49,0.00,,,0.00,VWS V14.01,2013-02-27 02:00:00,
2013-02-26 20:02:00,27.1,10.5,29.76,NNW,338,6.0,6.0,49,0.00,,,0.00,VWS V14.01,2013-02-27 02:02:00,
2013-02-26 20:04:00,26.4,9.9,29.74,North,0,0.0,0.9,49,0.00,,,0.00,VWS V14.01,2013-02-27 02:04:00,
2013-02-26 20:06:00,26.2,9.7,29.74,NNE,22,0.0,0.0,49,0.00,,,0.00,VWS V14.01,2013-02-27 02:06:00,
2013-02-26 20:07:00,27.1,10.5,29.76,NNW,338,4.7,4.7,49,0.00,,,0.00,VWS V14.01,2013-02-27 02:07:00,
2013-02-26 20:08:00,26.1,9.5,29.74,NNE,22,0.0,0.0,49,0.00,,,0.00,VWS V14.01,2013-02-27 02:08:00,
2013-02-26 20:10:00,26.1,9.5,29.74,NNE,22,0.0,0.0,49,0.00,,,0.00,VWS V14.01,2013-02-27 02:10:00,
2013-02-26 20:12:00,27.0,10.4,29.76,North,0,0.0,1.3,49,0.00,,,0.00,VWS V14.01,2013-02-27 02:12:00,
2013-02-26 20:14:00,26.1,10.0,29.76,NNW,338,0.0,0.0,50,0.00,,,0.00,VWS V14.01,2013-02-27 02:14:00,
2013-02-26 20:16:00,25.9,9.4,29.76,NNW,338,0.0,0.0,49,0.00,,,0.00,VWS V14.01,2013-02-27 02:16:00,
2013-02-26 20:17:00,27.1,10.5,29.76,NNW,338,4.7,4.7,49,0.00,,,0.00,VWS V14.01,2013-02-27 02:17:00,
2013-02-26 20:18:00,25.9,9.4,29.76,NW,315,4.0,4.0,49,0.00,,,0.00,VWS V14.01,2013-02-27 02:18:00,
2013-02-26 20:20:00,26.1,9.5,29.76,NNW,338,4.0,4.0,49,0.00,,,0.00,VWS V14.01,2013-02-27 02:20:00,
2013-02-26 20:22:00,27.0,10.4,29.76,NE,45,0.0,2.0,49,0.00,,,0.00,VWS V14.01,2013-02-27 02:22:00,
2013-02-26 20:24:00,25.7,9.2,29.76,NW,315,4.7,4.7,49,0.00,,,0.00,VWS V14.01,2013-02-27 02:24:00,
2013-02-26 20:26:00,25.9,9.8,29.76,NNW,338,7.4,7.4,50,0.00,,,0.00,VWS V14.01,2013-02-27 02:26:00,
2013-02-26 20:27:00,27.1,10.5,29.76,NNE,22,0.0,2.0,49,0.00,,,0.00,VWS V14.01,2013-02-27 02:27:00,
2013-02-26 20:28:00,26.1,10.0,29.76,NNW,338,2.7,3.4,50,0.00,,,0.00,VWS V14.01,2013-02-27 02:28:00,
2013-02-26 20:30:00,26.1,10.0,29.76,NNW,338,0.0,2.9,50,0.00,,,0.00,VWS V14.01,2013-02-27 02:30:00,
2013-02-26 20:32:00,27.0,10.4,29.76,North,0,2.7,2.7,49,0.00,,,0.00,VWS V14.01,2013-02-27 02:32:00,
2013-02-26 20:34:00,25.9,10.3,29.76,NNW,338,4.0,4.0,51,0.00,,,0.00,VWS V14.01,2013-02-27 02:34:00,
2013-02-26 20:36:00,25.9,10.3,29.76,NNW,338,2.7,2.7,51,0.00,,,0.00,VWS V14.01,2013-02-27 02:36:00,
2013-02-26 20:37:00,27.0,10.4,29.76,North,0,0.0,0.0,49,0.00,,,0.00,VWS V14.01,2013-02-27 02:37:00,
2013-02-26 20:38:00,25.9,10.3,29.76,NNW,338,4.0,4.0,51,0.00,,,0.00,VWS V14.01,2013-02-27 02:38:00,
2013-02-26 20:40:00,25.9,10.3,29.76,NNE,22,3.4,3.4,51,0.00,,,0.00,VWS V14.01,2013-02-27 02:40:00,
2013-02-26 20:42:00,26.8,10.2,29.76,NNW,338,0.0,0.0,49,0.00,,,0.00,VWS V14.01,2013-02-27 02:42:00,
2013-02-26 20:44:00,25.7,10.1,29.76,NNW,338,4.7,4.7,51,0.00,,,0.00,VWS V14.01,2013-02-27 02:44:00,
2013-02-26 20:46:00,25.7,10.1,29.76,NNW,338,4.0,4.0,51,0.00,,,0.00,VWS V14.01,2013-02-27 02:46:00,
2013-02-26 20:47:00,26.8,10.2,29.76,NNW,338,3.4,3.4,49,0.00,,,0.00,VWS V14.01,2013-02-27 02:47:00,
2013-02-26 20:48:00,25.7,10.1,29.76,NNE,22,0.0,1.3,51,0.00,,,0.00,VWS V14.01,2013-02-27 02:48:00,
2013-02-26 20:50:00,25.5,9.9,29.76,North,0,3.4,3.4,51,0.00,,,0.00,VWS V14.01,2013-02-27 02:50:00,
2013-02-26 20:52:00,26.6,10.0,29.74,North,0,2.7,2.7,49,0.00,,,0.00,VWS V14.01,2013-02-27 02:52:00,
2013-02-26 20:54:00,25.5,9.9,29.76,North,0,4.7,4.7,51,0.00,,,0.00,VWS V14.01,2013-02-27 02:54:00,
2013-02-26 20:56:00,25.7,10.1,29.76,NNW,338,3.4,3.4,51,0.00,,,0.00,VWS V14.01,2013-02-27 02:56:00,
2013-02-26 20:57:00,26.2,9.7,29.74,NNE,22,0.0,0.0,49,0.00,,,0.00,VWS V14.01,2013-02-27 02:57:00,
2013-02-26 20:58:00,25.5,9.9,29.76,NNE,22,0.0,1.3,51,0.00,,,0.00,VWS V14.01,2013-02-27 02:58:00,
2013-02-26 21:00:00,25.5,9.9,29.76,NW,315,0.0,0.0,51,0.00,,,0.00,VWS V14.01,2013-02-27 03:00:00,
2013-02-26 21:02:00,26.1,9.5,29.74,NNE,22,0.0,0.0,49,0.00,,,0.00,VWS V14.01,2013-02-27 03:02:00,
2013-02-26 21:04:00,25.3,9.8,29.76,NNW,338,3.4,3.4,51,0.00,,,0.00,VWS V14.01,2013-02-27 03:04:00,
2013-02-26 21:06:00,25.3,9.8,29.76,NNW,338,0.0,1.3,51,0.00,,,0.00,VWS V14.01,2013-02-27 03:06:00,
2013-02-26 21:07:00,26.1,9.5,29.76,NNW,338,0.0,0.0,49,0.00,,,0.00,VWS V14.01,2013-02-27 03:07:00,
2013-02-26 21:08:00,25.3,9.8,29.76,NNW,338,0.0,0.0,51,0.00,,,0.00,VWS V14.01,2013-02-27 03:08:00,
2013-02-26 21:10:00,25.2,9.6,29.76,NNW,338,0.0,0.0,51,0.00,,,0.00,VWS V14.01,2013-02-27 03:10:00,
2013-02-26 21:12:00,26.1,9.5,29.76,NNW,338,4.0,4.0,49,0.00,,,0.00,VWS V14.01,2013-02-27 03:12:00,
2013-02-26 21:14:00,25.2,9.6,29.76,NNW,338,0.0,0.0,51,0.00,,,0.00,VWS V14.01,2013-02-27 03:14:00,
2013-02-26 21:16:00,25.0,9.4,29.76,NNW,338,3.4,3.4,51,0.00,,,0.00,VWS V14.01,2013-02-27 03:16:00,
2013-02-26 21:17:00,25.9,9.8,29.76,North,0,2.7,2.9,50,0.00,,,0.00,VWS V14.01,2013-02-27 03:17:00,
2013-02-26 21:18:00,25.0,9.4,29.76,NNW,338,0.0,0.9,51,0.00,,,0.00,VWS V14.01,2013-02-27 03:18:00,
2013-02-26 21:20:00,25.0,9.4,29.76,NNW,338,0.0,1.3,51,0.00,,,0.00,VWS V14.01,2013-02-27 03:20:00,
2013-02-26 21:22:00,26.1,10.0,29.76,NNW,338,0.0,2.9,50,0.00,,,0.00,VWS V14.01,2013-02-27 03:22:00,
2013-02-26 21:24:00,25.0,9.4,29.76,NNE,22,0.0,0.0,51,0.00,,,0.00,VWS V14.01,2013-02-27 03:24:00,
2013-02-26 21:26:00,25.0,9.4,29.74,NNW,338,4.7,4.7,51,0.00,,,0.00,VWS V14.01,2013-02-27 03:26:00,
2013-02-26 21:27:00,25.9,10.3,29.76,NNW,338,0.0,1.3,51,0.00,,,0.00,VWS V14.01,2013-02-27 03:27:00,
2013-02-26 21:28:00,25.0,9.9,29.74,North,0,4.0,4.0,52,0.00,,,0.00,VWS V14.01,2013-02-27 03:28:00,
2013-02-26 21:30:00,25.0,9.9,29.74,NNE,22,2.7,2.7,52,0.00,,,0.00,VWS V14.01,2013-02-27 03:30:00,
2013-02-26 21:32:00,25.9,10.3,29.76,NE,45,4.7,4.7,51,0.00,,,0.00,VWS V14.01,2013-02-27 03:32:00,
2013-02-26 21:34:00,25.0,9.4,29.74,North,0,4.0,4.0,51,0.00,,,0.00,VWS V14.01,2013-02-27 03:34:00,
2013-02-26 21:36:00,25.0,9.4,29.74,NNW,338,4.0,4.0,51,0.00,,,0.00,VWS V14.01,2013-02-27 03:36:00,
2013-02-26 21:37:00,25.7,10.1,29.76,North,0,6.0,6.0,51,0.00,,,0.00,VWS V14.01,2013-02-27 03:37:00,
2013-02-26 21:38:00,25.0,9.9,29.74,NNW,338,0.0,2.0,52,0.00,,,0.00,VWS V14.01,2013-02-27 03:38:00,
2013-02-26 21:40:00,25.0,9.4,29.74,NNW,338,8.1,8.1,51,0.00,,,0.00,VWS V14.01,2013-02-27 03:40:00,
2013-02-26 21:42:00,25.5,9.9,29.76,North,0,3.4,3.4,51,0.00,,,0.00,VWS V14.01,2013-02-27 03:42:00,
2013-02-26 21:44:00,25.0,9.9,29.76,North,0,3.4,3.4,52,0.00,,,0.00,VWS V14.01,2013-02-27 03:44:00,
2013-02-26 21:46:00,25.0,9.9,29.76,North,0,3.4,3.4,52,0.00,,,0.00,VWS V14.01,2013-02-27 03:46:00,
2013-02-26 21:47:00,25.7,10.1,29.76,North,0,4.0,4.0,51,0.00,,,0.00,VWS V14.01,2013-02-27 03:47:00,
2013-02-26 21:48:00,25.2,10.0,29.76,NNE,22,3.4,3.4,52,0.00,,,0.00,VWS V14.01,2013-02-27 03:48:00,
2013-02-26 21:50:00,25.0,9.9,29.76,North,0,2.7,2.7,52,0.00,,,0.00,VWS V14.01,2013-02-27 03:50:00,
2013-02-26 21:52:00,25.5,9.9,29.76,NW,315,0.0,0.0,51,0.00,,,0.00,VWS V14.01,2013-02-27 03:52:00,
2013-02-26 21:54:00,25.0,9.9,29.76,NNW,338,8.7,8.7,52,0.00,,,0.00,VWS V14.01,2013-02-27 03:54:00,
2013-02-26 21:56:00,25.0,9.9,29.76,North,0,4.7,4.7,52,0.00,,,0.00,VWS V14.01,2013-02-27 03:56:00,
2013-02-26 21:57:00,25.3,9.8,29.76,NNW,338,0.0,1.3,51,0.00,,,0.00,VWS V14.01,2013-02-27 03:57:00,
2013-02-26 21:58:00,25.2,10.0,29.76,North,0,4.0,4.0,52,0.00,,,0.00,VWS V14.01,2013-02-27 03:58:00,
2013-02-26 22:00:00,25.2,10.0,29.76,NE,45,8.1,8.1,52,0.00,,,0.00,VWS V14.01,2013-02-27 04:00:00,
2013-02-26 22:02:00,25.2,9.6,29.76,NNW,338,0.0,0.0,51,0.00,,,0.00,VWS V14.01,2013-02-27 04:02:00,
2013-02-26 22:04:00,25.3,10.2,29.76,NW,315,4.0,4.0,52,0.00,,,0.00,VWS V14.01,2013-02-27 04:04:00,
2013-02-26 22:06:00,25.3,10.2,29.76,NNE,22,8.7,8.7,52,0.00,,,0.00,VWS V14.01,2013-02-27 04:06:00,
2013-02-26 22:07:00,25.0,9.4,29.76,NNW,338,0.0,0.0,51,0.00,,,0.00,VWS V14.01,2013-02-27 04:07:00,
2013-02-26 22:08:00,25.3,10.2,29.76,North,0,4.7,4.7,52,0.00,,,0.00,VWS V14.01,2013-02-27 04:08:00,
2013-02-26 22:10:00,25.3,10.2,29.76,NNE,22,4.0,4.0,52,0.00,,,0.00,VWS V14.01,2013-02-27 04:10:00,
2013-02-26 22:12:00,25.0,9.4,29.76,NNE,22,4.0,4.0,51,0.00,,,0.00,VWS V14.01,2013-02-27 04:12:00,
2013-02-26 22:14:00,25.3,10.2,29.80,North,0,3.4,3.4,52,0.00,,,0.00,VWS V14.01,2013-02-27 04:14:00,
2013-02-26 22:16:00,25.2,10.0,29.80,NNE,22,4.0,4.0,52,0.00,,,0.00,VWS V14.01,2013-02-27 04:16:00,
2013-02-26 22:17:00,25.0,9.4,29.76,North,0,6.0,6.0,51,0.00,,,0.00,VWS V14.01,2013-02-27 04:17:00,
2013-02-26 22:18:00,25.0,9.4,29.80,NNW,338,3.4,3.4,51,0.00,,,0.00,VWS V14.01,2013-02-27 04:18:00,
2013-02-26 22:20:00,25.0,9.4,29.80,NNW,338,4.7,4.7,51,0.00,,,0.00,VWS V14.01,2013-02-27 04:20:00,
2013-02-26 22:22:00,25.0,9.9,29.74,NNE,22,2.7,2.7,52,0.00,,,0.00,VWS V14.01,2013-02-27 04:22:00,
2013-02-26 22:24:00,25.0,9.4,29.80,North,0,3.4,3.4,51,0.00,,,0.00,VWS V14.01,2013-02-27 04:24:00,
2013-02-26 22:26:00,25.0,9.4,29.80,NNE,22,4.0,4.0,51,0.00,,,0.00,VWS V14.01,2013-02-27 04:26:00,
2013-02-26 22:27:00,25.0,9.4,29.74,NNE,22,0.0,1.6,51,0.00,,,0.00,VWS V14.01,2013-02-27 04:27:00,
2013-02-26 22:28:00,25.0,9.4,29.76,NNE,22,3.4,3.4,51,0.00,,,0.00,VWS V14.01,2013-02-27 04:28:00,
2013-02-26 22:30:00,24.8,9.7,29.76,North,0,4.7,4.7,52,0.00,,,0.00,VWS V14.01,2013-02-27 04:30:00,
2013-02-26 22:32:00,25.0,9.4,29.74,WNW,292,9.4,9.4,51,0.00,,,0.00,VWS V14.01,2013-02-27 04:32:00,
2013-02-26 22:34:00,25.0,9.9,29.76,North,0,4.7,4.7,52,0.00,,,0.00,VWS V14.01,2013-02-27 04:34:00,
2013-02-26 22:36:00,25.0,9.9,29.76,North,0,6.0,6.0,52,0.00,,,0.00,VWS V14.01,2013-02-27 04:36:00,
2013-02-26 22:37:00,25.0,9.9,29.76,NNW,338,4.7,4.7,52,0.00,,,0.00,VWS V14.01,2013-02-27 04:37:00,
2013-02-26 22:38:00,25.0,9.9,29.76,North,0,4.0,4.0,52,0.00,,,0.00,VWS V14.01,2013-02-27 04:38:00,
2013-02-26 22:40:00,25.0,9.9,29.76,NNE,22,4.7,4.7,52,0.00,,,0.00,VWS V14.01,2013-02-27 04:40:00,
2013-02-26 22:42:00,25.0,9.9,29.76,NW,315,2.7,2.7,52,0.00,,,0.00,VWS V14.01,2013-02-27 04:42:00,
2013-02-26 22:44:00,25.0,9.9,29.74,NNW,338,4.0,4.0,52,0.00,,,0.00,VWS V14.01,2013-02-27 04:44:00,
2013-02-26 22:46:00,24.8,9.7,29.74,North,0,3.4,3.4,52,0.00,,,0.00,VWS V14.01,2013-02-27 04:46:00,
2013-02-26 22:47:00,25.0,9.9,29.76,North,0,4.7,4.7,52,0.00,,,0.00,VWS V14.01,2013-02-27 04:47:00,
2013-02-26 22:48:00,24.8,9.7,29.74,NNE,22,6.0,6.0,52,0.00,,,0.00,VWS V14.01,2013-02-27 04:48:00,
2013-02-26 22:50:00,25.0,9.9,29.74,NNW,338,3.4,3.4,52,0.00,,,0.00,VWS V14.01,2013-02-27 04:50:00,
2013-02-26 22:52:00,25.2,10.0,29.76,NNW,338,6.0,6.0,52,0.00,,,0.00,VWS V14.01,2013-02-27 04:52:00,
2013-02-26 22:54:00,25.0,9.9,29.74,NNE,22,4.0,4.0,52,0.00,,,0.00,VWS V14.01,2013-02-27 04:54:00,
2013-02-26 22:56:00,25.0,9.9,29.76,NNE,22,4.0,4.0,52,0.00,,,0.00,VWS V14.01,2013-02-27 04:56:00,
2013-02-26 22:57:00,25.3,10.2,29.76,NNW,338,4.0,4.0,52,0.00,,,0.00,VWS V14.01,2013-02-27 04:57:00,
2013-02-26 22:58:00,24.8,9.7,29.76,NNW,338,4.7,4.7,52,0.00,,,0.00,VWS V14.01,2013-02-27 04:58:00,
2013-02-26 23:00:00,25.3,10.2,29.76,North,0,4.7,4.7,52,0.00,,,0.00,VWS V14.01,2013-02-27 05:00:00,
2013-02-26 23:02:00,25.0,9.9,29.76,NW,315,4.7,4.7,52,0.00,,,0.00,VWS V14.01,2013-02-27 05:02:00,
2013-02-26 23:04:00,25.2,10.0,29.76,NNE,22,8.7,8.7,52,0.00,,,0.00,VWS V14.01,2013-02-27 05:04:00,
2013-02-26 23:05:00,25.3,10.2,29.79,NNW,338,4.7,4.7,52,0.00,,,0.00,VWS V14.01,2013-02-27 05:05:00,
2013-02-26 23:06:00,25.2,10.0,29.76,North,0,4.0,4.0,52,0.00,,,0.00,VWS V14.01,2013-02-27 05:06:00,
2013-02-26 23:08:00,25.0,9.9,29.76,North,0,6.0,6.0,52,0.00,,,0.00,VWS V14.01,2013-02-27 05:08:00,
2013-02-26 23:10:00,25.0,9.4,29.79,NNW,338,3.4,3.4,51,0.00,,,0.00,VWS V14.01,2013-02-27 05:10:00,
2013-02-26 23:12:00,25.0,9.4,29.76,North,0,8.1,8.1,51,0.00,,,0.00,VWS V14.01,2013-02-27 05:12:00,
2013-02-26 23:14:00,25.2,9.6,29.76,NNW,338,8.7,8.7,51,0.00,,,0.00,VWS V14.01,2013-02-27 05:14:00,
2013-02-26 23:15:00,25.0,9.4,29.79,North,0,8.1,8.1,51,0.00,,,0.00,VWS V14.01,2013-02-27 05:15:00,
2013-02-26 23:16:00,25.2,9.6,29.76,NNW,338,8.1,8.1,51,0.00,,,0.00,VWS V14.01,2013-02-27 05:16:00,
2013-02-26 23:18:00,25.2,9.6,29.76,NNW,338,6.0,6.0,51,0.00,,,0.00,VWS V14.01,2013-02-27 05:18:00,
2013-02-26 23:20:00,25.0,9.4,29.76,NNE,22,4.0,4.0,51,0.00,,,0.00,VWS V14.01,2013-02-27 05:20:00,
2013-02-26 23:22:00,25.2,9.6,29.76,NNW,338,8.7,8.7,51,0.00,,,0.00,VWS V14.01,2013-02-27 05:22:00,
2013-02-26 23:24:00,25.2,9.6,29.76,NNW,338,6.7,6.7,51,0.00,,,0.00,VWS V14.01,2013-02-27 05:24:00,
2013-02-26 23:25:00,25.0,9.4,29.76,North,0,4.7,4.7,51,0.00,,,0.00,VWS V14.01,2013-02-27 05:25:00,
2013-02-26 23:26:00,25.2,9.6,29.80,NNE,22,4.0,4.0,51,0.00,,,0.00,VWS V14.01,2013-02-27 05:26:00,
2013-02-26 23:28:00,25.3,9.8,29.80,NNE,22,9.4,9.4,51,0.00,,,0.00,VWS V14.01,2013-02-27 05:28:00,
2013-02-26 23:30:00,25.0,9.9,29.76,North,0,4.0,4.0,52,0.00,,,0.00,VWS V14.01,2013-02-27 05:30:00,
2013-02-26 23:32:00,25.3,9.8,29.80,NNW,338,10.1,10.1,51,0.00,,,0.00,VWS V14.01,2013-02-27 05:32:00,
2013-02-26 23:34:00,25.3,9.8,29.80,NNW,338,7.4,7.4,51,0.00,,,0.00,VWS V14.01,2013-02-27 05:34:00,
2013-02-26 23:35:00,25.0,9.9,29.74,NNE,22,4.0,4.0,52,0.00,,,0.00,VWS V14.01,2013-02-27 05:35:00,
2013-02-26 23:36:00,25.3,9.8,29.80,NNW,338,8.7,8.7,51,0.00,,,0.00,VWS V14.01,2013-02-27 05:36:00,
2013-02-26 23:38:00,25.3,9.8,29.80,North,0,6.7,6.7,51,0.00,,,0.00,VWS V14.01,2013-02-27 05:38:00,
2013-02-26 23:40:00,24.8,9.7,29.74,North,0,4.7,4.7,52,0.00,,,0.00,VWS V14.01,2013-02-27 05:40:00,
2013-02-26 23:42:00,25.5,9.9,29.76,NNW,338,8.7,8.7,51,0.00,,,0.00,VWS V14.01,2013-02-27 05:42:00,
2013-02-26 23:44:00,25.3,9.8,29.76,North,0,4.7,4.7,51,0.00,,,0.00,VWS V14.01,2013-02-27 05:44:00,
2013-02-26 23:45:00,25.0,9.9,29.74,NNE,22,6.0,6.0,52,0.00,,,0.00,VWS V14.01,2013-02-27 05:45:00,
2013-02-26 23:46:00,25.3,9.8,29.76,NNE,22,6.0,6.0,51,0.00,,,0.00,VWS V14.01,2013-02-27 05:46:00,
2013-02-26 23:48:00,25.3,9.8,29.76,North,0,10.7,10.7,51,0.00,,,0.00,VWS V14.01,2013-02-27 05:48:00,
2013-02-26 23:50:00,24.8,9.7,29.76,North,0,7.4,7.4,52,0.00,,,0.00,VWS V14.01,2013-02-27 05:50:00,
2013-02-26 23:52:00,25.5,9.9,29.76,NE,45,14.1,14.1,51,0.00,,,0.00,VWS V14.01,2013-02-27 05:52:00,
2013-02-26 23:54:00,25.7,10.1,29.76,North,0,4.0,4.0,51,0.00,,,0.00,VWS V14.01,2013-02-27 05:54:00,
2013-02-26 23:55:00,25.2,10.0,29.76,North,0,4.7,4.7,52,0.00,,,0.00,VWS V14.01,2013-02-27 05:55:00,
2013-02-26 23:56:00,25.5,9.5,29.76,NNE,22,7.4,7.4,50,0.00,,,0.00,VWS V14.01,2013-02-27 05:56:00,
2013-02-26 23:58:00,25.3,9.3,29.76,NNE,22,4.7,4.7,50,0.00,,,0.00,VWS V14.01,2013-02-27 05:58:00,